VIR20V KSFO-EGLL
Flight info
| Callsign | VIR20V |
|---|---|
| Flight time | 9h 33m |
| Altitude | 35000 |
| Route | SNTNA2 TIPRE DCT MVA J56 TCH DCT DDY J107 DPR DCT GABOV DCT VIRSO/N0497F370 DCT HELMO DCT PELSI/M085F370 DCT RADUN DCT 61N050W 61N040W 60N030W 59N020W DCT AGORI/N0485F370 DCT OSBOX DCT MIMKU DCT KELLY L10 WAL UY53 NUGRA NUGRA2H |
| Aircraft | A35K/H-SDE2E3GHIJ3J4J5LM1ORWXY/LB1D1 |
Departure
| Time | 2026-05-04 06:08 |
|---|---|
| Airport | San Francisco International Airport (KSFO) |
Arrival
| Time | 2026-05-04 15:41 |
|---|---|
| Airport | London Heathrow Airport (EGLL) |
| Time | Latitude | Longitude | Altitude | Speed | Heading |
|---|---|---|---|---|---|
| 2026-05-04 05:51 | 37.61160 | -122.38938 | 28 ft | 0 kts | 299° |
| 2026-05-04 05:57 | 37.61159 | -122.38935 | 23 ft | 2 kts | 300° |
| 2026-05-04 05:57 | 37.61145 | -122.38911 | 29 ft | 4 kts | 299° |
| 2026-05-04 05:58 | 37.61140 | -122.38881 | 29 ft | 4 kts | 258° |
| 2026-05-04 05:58 | 37.61148 | -122.38852 | 29 ft | 4 kts | 224° |
| 2026-05-04 05:58 | 37.61170 | -122.38834 | 29 ft | 4 kts | 206° |
| 2026-05-04 05:58 | 37.61181 | -122.38827 | 29 ft | 1 kts | 208° |
| 2026-05-04 06:03 | 37.60884 | -122.38286 | 28 ft | 16 kts | 106° |
| 2026-05-04 06:03 | 37.60855 | -122.38145 | 27 ft | 18 kts | 118° |
| 2026-05-04 06:05 | 37.61523 | -122.37305 | 28 ft | 29 kts | 48° |
| 2026-05-04 06:05 | 37.61420 | -122.36862 | 29 ft | 30 kts | 130° |
| 2026-05-04 06:05 | 37.61305 | -122.36638 | 27 ft | 31 kts | 117° |
| 2026-05-04 06:06 | 37.61203 | -122.36393 | 26 ft | 32 kts | 118° |
| 2026-05-04 06:06 | 37.61101 | -122.36151 | 27 ft | 28 kts | 116° |
| 2026-05-04 06:06 | 37.61054 | -122.35970 | 24 ft | 21 kts | 73° |
| 2026-05-04 06:06 | 37.61170 | -122.35883 | 27 ft | 20 kts | 346° |
| 2026-05-04 06:07 | 37.61239 | -122.36004 | 25 ft | 0 kts | 298° |
| 2026-05-04 06:07 | 37.61240 | -122.36009 | 25 ft | 9 kts | 298° |
| 2026-05-04 06:07 | 37.61397 | -122.36377 | 20 ft | 83 kts | 298° |
| 2026-05-04 06:07 | 37.61620 | -122.36910 | 27 ft | 123 kts | 298° |
| 2026-05-04 06:08 | 37.62115 | -122.38084 | 54 ft | 174 kts | 298° |
| 2026-05-04 06:08 | 37.62637 | -122.39429 | 832 ft | 169 kts | 293° |
| 2026-05-04 06:08 | 37.63171 | -122.40774 | 1466 ft | 176 kts | 296° |
| 2026-05-04 06:08 | 37.63797 | -122.42214 | 1740 ft | 198 kts | 297° |
| 2026-05-04 06:09 | 37.64515 | -122.43843 | 1935 ft | 225 kts | 297° |
| 2026-05-04 06:09 | 37.65302 | -122.45632 | 2288 ft | 243 kts | 297° |
| 2026-05-04 06:11 | 37.75444 | -122.52710 | 6683 ft | 288 kts | 1° |
| 2026-05-04 06:11 | 37.77457 | -122.52743 | 7395 ft | 289 kts | 3° |
| 2026-05-04 06:13 | 37.85034 | -122.38901 | 11232 ft | 339 kts | 72° |
| 2026-05-04 06:14 | 37.90027 | -122.20260 | 14194 ft | 389 kts | 72° |
| 2026-05-04 06:14 | 37.90900 | -122.16998 | 14769 ft | 393 kts | 72° |
| 2026-05-04 06:15 | 37.91774 | -122.13730 | 15321 ft | 398 kts | 72° |
| 2026-05-04 06:15 | 37.92668 | -122.10388 | 15972 ft | 400 kts | 72° |
| 2026-05-04 06:15 | 37.93565 | -122.07030 | 16606 ft | 403 kts | 72° |
| 2026-05-04 06:15 | 37.94464 | -122.03655 | 17240 ft | 405 kts | 72° |
| 2026-05-04 06:16 | 37.95370 | -122.00252 | 17851 ft | 409 kts | 72° |
| 2026-05-04 06:16 | 37.96271 | -121.96861 | 18418 ft | 412 kts | 72° |
| 2026-05-04 06:16 | 37.97189 | -121.93402 | 19004 ft | 415 kts | 72° |
| 2026-05-04 06:16 | 37.98112 | -121.89919 | 19592 ft | 417 kts | 73° |
| 2026-05-04 06:17 | 37.99037 | -121.86424 | 20166 ft | 419 kts | 73° |
| 2026-05-04 06:17 | 37.99969 | -121.82901 | 20785 ft | 422 kts | 73° |
| 2026-05-04 06:17 | 38.00903 | -121.79362 | 21396 ft | 424 kts | 73° |
| 2026-05-04 06:17 | 38.01828 | -121.75853 | 22040 ft | 425 kts | 73° |
| 2026-05-04 06:18 | 38.02768 | -121.72283 | 22650 ft | 428 kts | 74° |
| 2026-05-04 06:18 | 38.03715 | -121.68680 | 23260 ft | 431 kts | 74° |
| 2026-05-04 06:18 | 38.04667 | -121.65053 | 23789 ft | 434 kts | 74° |
| 2026-05-04 06:20 | 38.11464 | -121.39011 | 27030 ft | 455 kts | 74° |
| 2026-05-04 06:20 | 38.12457 | -121.35182 | 27447 ft | 458 kts | 74° |
| 2026-05-04 06:21 | 38.16483 | -121.19606 | 29327 ft | 462 kts | 74° |
| 2026-05-04 06:21 | 38.17470 | -121.15779 | 30071 ft | 458 kts | 74° |
| 2026-05-04 06:22 | 38.18460 | -121.11927 | 30432 ft | 459 kts | 74° |
| 2026-05-04 06:22 | 38.19461 | -121.08024 | 30557 ft | 466 kts | 74° |
| 2026-05-04 06:25 | 38.27198 | -120.53170 | 33352 ft | 504 kts | 82° |
| 2026-05-04 06:25 | 38.27767 | -120.48741 | 33545 ft | 507 kts | 82° |
| 2026-05-04 06:26 | 38.28338 | -120.44288 | 33745 ft | 509 kts | 82° |
| 2026-05-04 06:26 | 38.28908 | -120.39828 | 33920 ft | 512 kts | 82° |
| 2026-05-04 06:26 | 38.29474 | -120.35384 | 34081 ft | 515 kts | 82° |
| 2026-05-04 06:26 | 38.30049 | -120.30855 | 34263 ft | 516 kts | 82° |
| 2026-05-04 06:27 | 38.32324 | -120.12772 | 34964 ft | 522 kts | 83° |
| 2026-05-04 06:28 | 38.33457 | -120.03669 | 34963 ft | 523 kts | 83° |
| 2026-05-04 06:28 | 38.34594 | -119.94487 | 34964 ft | 529 kts | 83° |
| 2026-05-04 06:29 | 38.35737 | -119.85183 | 34957 ft | 532 kts | 83° |
| 2026-05-04 06:29 | 38.36871 | -119.75900 | 34955 ft | 533 kts | 83° |
| 2026-05-04 06:30 | 38.38007 | -119.66528 | 34954 ft | 534 kts | 83° |
| 2026-05-04 06:30 | 38.39139 | -119.57153 | 34941 ft | 534 kts | 83° |
| 2026-05-04 06:31 | 38.40253 | -119.47833 | 34926 ft | 535 kts | 83° |
| 2026-05-04 06:31 | 38.41368 | -119.38431 | 34927 ft | 535 kts | 83° |
| 2026-05-04 06:33 | 38.45760 | -119.00805 | 34910 ft | 538 kts | 84° |
| 2026-05-04 06:34 | 38.46838 | -118.91398 | 34931 ft | 538 kts | 83° |
| 2026-05-04 06:34 | 38.47912 | -118.81951 | 34945 ft | 538 kts | 84° |
| 2026-05-04 06:36 | 38.52175 | -118.43767 | 34940 ft | 547 kts | 84° |
| 2026-05-04 06:37 | 38.53231 | -118.34125 | 34910 ft | 547 kts | 84° |
| 2026-05-04 06:37 | 38.54273 | -118.24549 | 34899 ft | 545 kts | 84° |
| 2026-05-04 06:38 | 38.55306 | -118.14971 | 34881 ft | 545 kts | 84° |
| 2026-05-04 06:40 | 38.64726 | -117.83448 | 34888 ft | 549 kts | 62° |
| 2026-05-04 06:40 | 38.66538 | -117.79147 | 34893 ft | 549 kts | 62° |
| 2026-05-04 06:40 | 38.70146 | -117.70505 | 34889 ft | 549 kts | 62° |
| 2026-05-04 06:41 | 38.73725 | -117.61837 | 34889 ft | 549 kts | 62° |
| 2026-05-04 06:41 | 38.77263 | -117.53218 | 34890 ft | 549 kts | 62° |
| 2026-05-04 06:42 | 38.80817 | -117.44534 | 34878 ft | 549 kts | 62° |
| 2026-05-04 06:44 | 38.94774 | -117.10210 | 34876 ft | 537 kts | 63° |
| 2026-05-04 06:44 | 38.98210 | -117.01701 | 34876 ft | 538 kts | 63° |
| 2026-05-04 06:45 | 39.01648 | -116.93162 | 34876 ft | 538 kts | 63° |
| 2026-05-04 06:45 | 39.05089 | -116.84595 | 34871 ft | 538 kts | 63° |
| 2026-05-04 06:46 | 39.08497 | -116.76086 | 34867 ft | 537 kts | 63° |
| 2026-05-04 06:46 | 39.11915 | -116.67525 | 34873 ft | 537 kts | 63° |
| 2026-05-04 06:48 | 39.24941 | -116.34689 | 34867 ft | 537 kts | 63° |
| 2026-05-04 06:50 | 39.38448 | -116.00258 | 34850 ft | 537 kts | 64° |
| 2026-05-04 06:51 | 39.41788 | -115.91682 | 34840 ft | 528 kts | 64° |
| 2026-05-04 06:51 | 39.45074 | -115.83223 | 34835 ft | 527 kts | 64° |
| 2026-05-04 06:52 | 39.48350 | -115.74765 | 34825 ft | 527 kts | 64° |
| 2026-05-04 06:52 | 39.51633 | -115.66265 | 34822 ft | 527 kts | 64° |
| 2026-05-04 06:53 | 39.54904 | -115.57770 | 34817 ft | 527 kts | 64° |
| 2026-05-04 06:53 | 39.58173 | -115.49259 | 34810 ft | 527 kts | 64° |
| 2026-05-04 06:54 | 39.61438 | -115.40733 | 34812 ft | 527 kts | 64° |
| 2026-05-04 06:54 | 39.64679 | -115.32245 | 34809 ft | 527 kts | 64° |
| 2026-05-04 06:55 | 39.67916 | -115.23747 | 34795 ft | 525 kts | 64° |
| 2026-05-04 06:55 | 39.71149 | -115.15229 | 34794 ft | 525 kts | 64° |
| 2026-05-04 06:57 | 39.84013 | -114.81108 | 34796 ft | 525 kts | 64° |
| 2026-05-04 06:58 | 39.87215 | -114.72553 | 34792 ft | 525 kts | 64° |
| 2026-05-04 06:58 | 39.90396 | -114.64027 | 34803 ft | 525 kts | 64° |
| 2026-05-04 06:59 | 39.93558 | -114.55529 | 34791 ft | 517 kts | 64° |
| 2026-05-04 06:59 | 39.96677 | -114.47124 | 34796 ft | 514 kts | 64° |
| 2026-05-04 07:01 | 40.09029 | -114.13595 | 34793 ft | 512 kts | 65° |
| 2026-05-04 07:02 | 40.12101 | -114.05198 | 34802 ft | 512 kts | 65° |
| 2026-05-04 07:02 | 40.15151 | -113.96836 | 34806 ft | 510 kts | 65° |
| 2026-05-04 07:03 | 40.18203 | -113.88444 | 34804 ft | 510 kts | 65° |
| 2026-05-04 07:03 | 40.21228 | -113.80101 | 34808 ft | 510 kts | 65° |
| 2026-05-04 07:04 | 40.24266 | -113.71700 | 34799 ft | 510 kts | 65° |
| 2026-05-04 07:04 | 40.27307 | -113.63266 | 34801 ft | 512 kts | 65° |
| 2026-05-04 07:05 | 40.30345 | -113.54814 | 34793 ft | 512 kts | 65° |
| 2026-05-04 07:05 | 40.33362 | -113.46398 | 34782 ft | 512 kts | 65° |
| 2026-05-04 07:06 | 40.37890 | -113.33719 | 34776 ft | 512 kts | 65° |
| 2026-05-04 07:07 | 40.40909 | -113.25236 | 34779 ft | 512 kts | 65° |
| 2026-05-04 07:09 | 40.52900 | -112.91287 | 34781 ft | 512 kts | 65° |
| 2026-05-04 07:09 | 40.55881 | -112.82783 | 34785 ft | 512 kts | 66° |
| 2026-05-04 07:10 | 40.58838 | -112.74323 | 34783 ft | 512 kts | 66° |
| 2026-05-04 07:12 | 40.70654 | -112.40266 | 34878 ft | 510 kts | 66° |
| 2026-05-04 07:12 | 40.73591 | -112.31737 | 34871 ft | 511 kts | 66° |
| 2026-05-04 07:13 | 40.76513 | -112.23226 | 34850 ft | 511 kts | 66° |
| 2026-05-04 07:13 | 40.79442 | -112.14669 | 34865 ft | 511 kts | 66° |
| 2026-05-04 07:14 | 40.87065 | -111.93557 | 34874 ft | 511 kts | 61° |
| 2026-05-04 07:15 | 40.90558 | -111.85370 | 34858 ft | 510 kts | 60° |
| 2026-05-04 07:15 | 40.94059 | -111.77253 | 34836 ft | 506 kts | 60° |
| 2026-05-04 07:16 | 40.97522 | -111.69199 | 34844 ft | 505 kts | 60° |
| 2026-05-04 07:16 | 41.00994 | -111.61081 | 34831 ft | 505 kts | 60° |
| 2026-05-04 07:17 | 41.04458 | -111.52952 | 34808 ft | 506 kts | 60° |
| 2026-05-04 07:17 | 41.07907 | -111.44838 | 34811 ft | 506 kts | 60° |
| 2026-05-04 07:18 | 41.11357 | -111.36697 | 34878 ft | 506 kts | 60° |
| 2026-05-04 07:18 | 41.14778 | -111.28604 | 34931 ft | 506 kts | 60° |
| 2026-05-04 07:19 | 41.18217 | -111.20446 | 34998 ft | 506 kts | 61° |
| 2026-05-04 07:19 | 41.21633 | -111.12322 | 35051 ft | 506 kts | 60° |
| 2026-05-04 07:20 | 41.25074 | -111.04118 | 35044 ft | 507 kts | 61° |
| 2026-05-04 07:20 | 41.28503 | -110.95916 | 35046 ft | 506 kts | 60° |
| 2026-05-04 07:22 | 41.40384 | -110.67327 | 34886 ft | 505 kts | 60° |
| 2026-05-04 07:22 | 41.42062 | -110.63267 | 34856 ft | 505 kts | 60° |
| 2026-05-04 07:23 | 41.43760 | -110.59154 | 35025 ft | 505 kts | 60° |
| 2026-05-04 07:23 | 41.45450 | -110.55053 | 35043 ft | 505 kts | 60° |
| 2026-05-04 07:23 | 41.48833 | -110.46829 | 34855 ft | 505 kts | 60° |
| 2026-05-04 07:24 | 41.52220 | -110.38572 | 34864 ft | 506 kts | 60° |
| 2026-05-04 07:24 | 41.55590 | -110.30332 | 34857 ft | 507 kts | 60° |
| 2026-05-04 07:26 | 41.69041 | -109.97216 | 34833 ft | 508 kts | 60° |
| 2026-05-04 07:27 | 41.72406 | -109.88873 | 34833 ft | 508 kts | 60° |
| 2026-05-04 07:27 | 41.75742 | -109.80578 | 34835 ft | 508 kts | 60° |
| 2026-05-04 07:28 | 41.79095 | -109.72216 | 34836 ft | 509 kts | 60° |
| 2026-05-04 07:28 | 41.82445 | -109.63840 | 34838 ft | 510 kts | 60° |
| 2026-05-04 07:29 | 41.85772 | -109.55496 | 34843 ft | 510 kts | 60° |
| 2026-05-04 07:29 | 41.89123 | -109.47069 | 34844 ft | 509 kts | 60° |
| 2026-05-04 07:30 | 41.92460 | -109.38650 | 34847 ft | 511 kts | 60° |
| 2026-05-04 07:30 | 41.95781 | -109.30251 | 34848 ft | 511 kts | 60° |
| 2026-05-04 07:31 | 41.99118 | -109.21785 | 34849 ft | 511 kts | 60° |
| 2026-05-04 07:33 | 42.11866 | -108.89215 | 34835 ft | 515 kts | 60° |
| 2026-05-04 07:33 | 42.15728 | -108.79273 | 34827 ft | 515 kts | 60° |
| 2026-05-04 07:34 | 42.18492 | -108.72139 | 34833 ft | 516 kts | 60° |
| 2026-05-04 07:34 | 42.21823 | -108.63516 | 34814 ft | 516 kts | 60° |
| 2026-05-04 07:35 | 42.25125 | -108.54945 | 34807 ft | 516 kts | 60° |
| 2026-05-04 07:35 | 42.28435 | -108.46323 | 34809 ft | 516 kts | 60° |
| 2026-05-04 07:36 | 42.31742 | -108.37687 | 34801 ft | 517 kts | 60° |
| 2026-05-04 07:38 | 42.44881 | -108.03109 | 34795 ft | 517 kts | 60° |
| 2026-05-04 07:38 | 42.48134 | -107.94484 | 34793 ft | 517 kts | 60° |
| 2026-05-04 07:39 | 42.51408 | -107.85777 | 34791 ft | 517 kts | 60° |
| 2026-05-04 07:39 | 42.54649 | -107.77128 | 34790 ft | 517 kts | 61° |
| 2026-05-04 07:40 | 42.57902 | -107.68424 | 34793 ft | 516 kts | 60° |
| 2026-05-04 07:40 | 42.61143 | -107.59724 | 34797 ft | 516 kts | 60° |
| 2026-05-04 07:41 | 42.64381 | -107.51005 | 34797 ft | 516 kts | 61° |
| 2026-05-04 07:41 | 42.67611 | -107.42283 | 34794 ft | 517 kts | 61° |
| 2026-05-04 07:42 | 42.70814 | -107.33607 | 34798 ft | 514 kts | 61° |
| 2026-05-04 07:42 | 42.74001 | -107.24942 | 34799 ft | 510 kts | 61° |
| 2026-05-04 07:43 | 42.77179 | -107.16279 | 34802 ft | 510 kts | 61° |
| 2026-05-04 07:43 | 42.80347 | -107.07621 | 34801 ft | 510 kts | 62° |
| 2026-05-04 07:44 | 42.83492 | -106.98995 | 34804 ft | 509 kts | 62° |
| 2026-05-04 07:44 | 42.86631 | -106.90358 | 34811 ft | 507 kts | 62° |
| 2026-05-04 07:45 | 42.89756 | -106.81735 | 34846 ft | 507 kts | 62° |
| 2026-05-04 07:45 | 42.92866 | -106.73127 | 34871 ft | 507 kts | 62° |
| 2026-05-04 07:46 | 42.95976 | -106.64491 | 34887 ft | 506 kts | 62° |
| 2026-05-04 07:46 | 42.99063 | -106.55892 | 34900 ft | 505 kts | 62° |
| 2026-05-04 07:47 | 43.02139 | -106.47299 | 34898 ft | 505 kts | 62° |
| 2026-05-04 07:49 | 43.15609 | -106.13814 | 34807 ft | 502 kts | 55° |
| 2026-05-04 07:49 | 43.19404 | -106.05744 | 34798 ft | 502 kts | 55° |
| 2026-05-04 07:50 | 43.23153 | -105.97737 | 34801 ft | 502 kts | 55° |
| 2026-05-04 07:50 | 43.26925 | -105.89640 | 34791 ft | 502 kts | 55° |
| 2026-05-04 07:51 | 43.30666 | -105.81577 | 34788 ft | 502 kts | 55° |
| 2026-05-04 07:51 | 43.34430 | -105.73444 | 34792 ft | 503 kts | 55° |
| 2026-05-04 07:52 | 43.38185 | -105.65307 | 34788 ft | 504 kts | 55° |
| 2026-05-04 07:52 | 43.41908 | -105.57218 | 34793 ft | 504 kts | 55° |
| 2026-05-04 07:54 | 43.56845 | -105.24537 | 34811 ft | 503 kts | 55° |
| 2026-05-04 07:55 | 43.60561 | -105.16349 | 34818 ft | 502 kts | 55° |
| 2026-05-04 07:55 | 43.64231 | -105.08238 | 34809 ft | 499 kts | 55° |
| 2026-05-04 07:56 | 43.67899 | -105.00110 | 34816 ft | 498 kts | 55° |
| 2026-05-04 07:56 | 43.71566 | -104.91965 | 34824 ft | 498 kts | 55° |
| 2026-05-04 07:57 | 43.75222 | -104.83821 | 34818 ft | 498 kts | 55° |
| 2026-05-04 07:57 | 43.78846 | -104.75724 | 34814 ft | 498 kts | 55° |
| 2026-05-04 07:58 | 43.82490 | -104.67559 | 34803 ft | 498 kts | 55° |
| 2026-05-04 07:58 | 43.86131 | -104.59379 | 34820 ft | 498 kts | 55° |
| 2026-05-04 07:59 | 43.89741 | -104.51245 | 34820 ft | 498 kts | 56° |
| 2026-05-04 07:59 | 43.93379 | -104.43023 | 34800 ft | 498 kts | 56° |
| 2026-05-04 08:00 | 43.96977 | -104.34871 | 34796 ft | 498 kts | 56° |
| 2026-05-04 08:02 | 44.11392 | -104.01975 | 34779 ft | 498 kts | 56° |
| 2026-05-04 08:02 | 44.14971 | -103.93746 | 34776 ft | 498 kts | 56° |
| 2026-05-04 08:03 | 44.18570 | -103.85453 | 34787 ft | 499 kts | 55° |
| 2026-05-04 08:03 | 44.22148 | -103.77184 | 34759 ft | 500 kts | 55° |
| 2026-05-04 08:04 | 44.25746 | -103.68841 | 34760 ft | 500 kts | 55° |
| 2026-05-04 08:04 | 44.29312 | -103.60547 | 34752 ft | 501 kts | 55° |
| 2026-05-04 08:05 | 44.32899 | -103.52181 | 34776 ft | 501 kts | 55° |
| 2026-05-04 08:05 | 44.36478 | -103.43810 | 34758 ft | 501 kts | 55° |
| 2026-05-04 08:06 | 44.40031 | -103.35476 | 34734 ft | 502 kts | 55° |
| 2026-05-04 08:06 | 44.43611 | -103.27054 | 34714 ft | 503 kts | 55° |
| 2026-05-04 08:08 | 44.57872 | -102.93254 | 34714 ft | 505 kts | 55° |
| 2026-05-04 08:11 | 44.73922 | -102.54734 | 34720 ft | 511 kts | 55° |
| 2026-05-04 08:11 | 44.79307 | -102.41688 | 34714 ft | 514 kts | 55° |
| 2026-05-04 08:12 | 44.82870 | -102.33020 | 34714 ft | 514 kts | 55° |
| 2026-05-04 08:12 | 44.86451 | -102.24284 | 34731 ft | 514 kts | 55° |
| 2026-05-04 08:13 | 44.90024 | -102.15542 | 34713 ft | 516 kts | 55° |
| 2026-05-04 08:13 | 44.93605 | -102.06754 | 34710 ft | 516 kts | 55° |
| 2026-05-04 08:14 | 44.97183 | -101.97944 | 34705 ft | 517 kts | 55° |
| 2026-05-04 08:16 | 45.12727 | -101.64018 | 34694 ft | 509 kts | 42° |
| 2026-05-04 08:16 | 45.17521 | -101.56684 | 34687 ft | 508 kts | 41° |
| 2026-05-04 08:17 | 45.22368 | -101.49336 | 34682 ft | 509 kts | 40° |
| 2026-05-04 08:17 | 45.27164 | -101.42014 | 34682 ft | 508 kts | 41° |
| 2026-05-04 08:19 | 45.45560 | -101.13618 | 34670 ft | 508 kts | 41° |
| 2026-05-04 08:20 | 45.50326 | -101.06213 | 34666 ft | 509 kts | 41° |
| 2026-05-04 08:20 | 45.55092 | -100.98788 | 34666 ft | 509 kts | 41° |
| 2026-05-04 08:21 | 45.59882 | -100.91306 | 34664 ft | 509 kts | 41° |
| 2026-05-04 08:21 | 45.64665 | -100.83813 | 34655 ft | 510 kts | 41° |
| 2026-05-04 08:22 | 45.69440 | -100.76312 | 34663 ft | 511 kts | 41° |
| 2026-05-04 08:24 | 45.88566 | -100.46063 | 34647 ft | 514 kts | 41° |
| 2026-05-04 08:24 | 45.93359 | -100.38431 | 34642 ft | 515 kts | 41° |
| 2026-05-04 08:25 | 45.98153 | -100.30776 | 34648 ft | 516 kts | 41° |
| 2026-05-04 08:25 | 46.02971 | -100.23060 | 34642 ft | 517 kts | 41° |
| 2026-05-04 08:27 | 46.22181 | -99.92077 | 34642 ft | 521 kts | 41° |
| 2026-05-04 08:28 | 46.26972 | -99.84294 | 34643 ft | 521 kts | 41° |
| 2026-05-04 08:28 | 46.31791 | -99.76443 | 34641 ft | 521 kts | 41° |
| 2026-05-04 08:29 | 46.36616 | -99.68557 | 34640 ft | 521 kts | 41° |
| 2026-05-04 08:31 | 46.55834 | -99.36933 | 34627 ft | 523 kts | 41° |
| 2026-05-04 08:33 | 46.75092 | -99.04871 | 34614 ft | 528 kts | 41° |
| 2026-05-04 08:35 | 46.94431 | -98.72289 | 34599 ft | 533 kts | 41° |
| 2026-05-04 08:35 | 46.99272 | -98.64068 | 34599 ft | 533 kts | 41° |
| 2026-05-04 08:37 | 47.16226 | -98.35093 | 34584 ft | 537 kts | 42° |
| 2026-05-04 08:38 | 47.21078 | -98.26740 | 34590 ft | 537 kts | 42° |
| 2026-05-04 08:38 | 47.25900 | -98.18414 | 34575 ft | 537 kts | 42° |
| 2026-05-04 08:40 | 47.45280 | -97.84700 | 34561 ft | 539 kts | 42° |
| 2026-05-04 08:41 | 47.50098 | -97.76251 | 34561 ft | 539 kts | 42° |
| 2026-05-04 08:41 | 47.54936 | -97.67743 | 34598 ft | 539 kts | 42° |
| 2026-05-04 08:42 | 47.59770 | -97.59211 | 34552 ft | 539 kts | 42° |
| 2026-05-04 08:42 | 47.64565 | -97.50724 | 34555 ft | 540 kts | 42° |
| 2026-05-04 08:43 | 47.69400 | -97.42141 | 34549 ft | 541 kts | 42° |
| 2026-05-04 08:43 | 47.74206 | -97.33580 | 34540 ft | 541 kts | 42° |
| 2026-05-04 08:44 | 47.79042 | -97.24938 | 34575 ft | 542 kts | 43° |
| 2026-05-04 08:46 | 47.98220 | -96.90393 | 34499 ft | 541 kts | 43° |
| 2026-05-04 08:46 | 48.03010 | -96.81696 | 34514 ft | 542 kts | 44° |
| 2026-05-04 08:47 | 48.07789 | -96.72988 | 34485 ft | 539 kts | 44° |
| 2026-05-04 08:47 | 48.12536 | -96.64311 | 34486 ft | 538 kts | 44° |
| 2026-05-04 08:48 | 48.17260 | -96.55652 | 34484 ft | 538 kts | 44° |
| 2026-05-04 08:48 | 48.21972 | -96.46987 | 34474 ft | 538 kts | 44° |
| 2026-05-04 08:49 | 48.26712 | -96.38242 | 34516 ft | 539 kts | 45° |
| 2026-05-04 08:50 | 48.43129 | -96.07725 | 34462 ft | 536 kts | 45° |
| 2026-05-04 08:51 | 48.47817 | -95.98948 | 34460 ft | 537 kts | 45° |
| 2026-05-04 08:51 | 48.52506 | -95.90140 | 34459 ft | 536 kts | 46° |
| 2026-05-04 08:52 | 48.57136 | -95.81408 | 34442 ft | 533 kts | 46° |
| 2026-05-04 08:52 | 48.61767 | -95.72652 | 34421 ft | 533 kts | 46° |
| 2026-05-04 08:54 | 48.80233 | -95.37452 | 34380 ft | 534 kts | 46° |
| 2026-05-04 08:55 | 48.84847 | -95.28583 | 34374 ft | 534 kts | 46° |
| 2026-05-04 08:55 | 48.89464 | -95.19679 | 34378 ft | 535 kts | 46° |
| 2026-05-04 09:01 | 49.36614 | -94.27001 | 34367 ft | 534 kts | 48° |
| 2026-05-04 09:01 | 49.41131 | -94.17951 | 34364 ft | 534 kts | 48° |
| 2026-05-04 09:02 | 49.45646 | -94.08875 | 34369 ft | 534 kts | 48° |
| 2026-05-04 09:02 | 49.50070 | -93.99714 | 34348 ft | 534 kts | 52° |
| 2026-05-04 09:03 | 49.54074 | -93.90043 | 34337 ft | 535 kts | 54° |
| 2026-05-04 09:03 | 49.57966 | -93.80339 | 34331 ft | 535 kts | 54° |
| 2026-05-04 09:04 | 49.61955 | -93.70574 | 34322 ft | 535 kts | 53° |
| 2026-05-04 09:04 | 49.65929 | -93.60955 | 34314 ft | 535 kts | 53° |
| 2026-05-04 09:05 | 49.69935 | -93.51255 | 34321 ft | 534 kts | 54° |
| 2026-05-04 09:05 | 49.73930 | -93.41542 | 34300 ft | 533 kts | 54° |
| 2026-05-04 09:06 | 49.77900 | -93.31846 | 34300 ft | 533 kts | 54° |
| 2026-05-04 09:08 | 49.93690 | -92.92918 | 34301 ft | 534 kts | 54° |
| 2026-05-04 09:08 | 49.97600 | -92.83188 | 34279 ft | 533 kts | 55° |
| 2026-05-04 09:09 | 50.01510 | -92.73421 | 34276 ft | 533 kts | 55° |
| 2026-05-04 09:09 | 50.05421 | -92.63618 | 34273 ft | 531 kts | 55° |
| 2026-05-04 09:10 | 50.09316 | -92.53815 | 34273 ft | 531 kts | 55° |
| 2026-05-04 09:10 | 50.13175 | -92.44070 | 34276 ft | 531 kts | 55° |
| 2026-05-04 09:11 | 50.17057 | -92.34228 | 34271 ft | 531 kts | 55° |
| 2026-05-04 09:11 | 50.20894 | -92.24462 | 34264 ft | 529 kts | 56° |
| 2026-05-04 09:12 | 50.24739 | -92.14642 | 34247 ft | 529 kts | 56° |
| 2026-05-04 09:14 | 50.39993 | -91.75311 | 34261 ft | 528 kts | 56° |
| 2026-05-04 09:14 | 50.43785 | -91.65440 | 34258 ft | 529 kts | 57° |
| 2026-05-04 09:15 | 50.47583 | -91.55517 | 34257 ft | 529 kts | 57° |
| 2026-05-04 09:15 | 50.51365 | -91.45595 | 34248 ft | 529 kts | 57° |
| 2026-05-04 09:17 | 50.68258 | -91.00811 | 34237 ft | 529 kts | 57° |
| 2026-05-04 09:18 | 50.71981 | -90.90836 | 34224 ft | 529 kts | 58° |
| 2026-05-04 09:18 | 50.75710 | -90.80805 | 34227 ft | 529 kts | 58° |
| 2026-05-04 09:19 | 50.79411 | -90.70812 | 34221 ft | 529 kts | 58° |
| 2026-05-04 09:19 | 50.83126 | -90.60743 | 34223 ft | 529 kts | 58° |
| 2026-05-04 09:20 | 50.86809 | -90.50719 | 34214 ft | 529 kts | 58° |
| 2026-05-04 09:20 | 50.90500 | -90.40637 | 34222 ft | 528 kts | 58° |
| 2026-05-04 09:21 | 50.94170 | -90.30569 | 34212 ft | 528 kts | 59° |
| 2026-05-04 09:21 | 50.97843 | -90.20456 | 34218 ft | 528 kts | 59° |
| 2026-05-04 09:22 | 51.01501 | -90.10340 | 34210 ft | 528 kts | 59° |
| 2026-05-04 09:22 | 51.05156 | -90.00195 | 34207 ft | 528 kts | 59° |
| 2026-05-04 09:23 | 51.08804 | -89.90029 | 34213 ft | 528 kts | 59° |
| 2026-05-04 09:23 | 51.12426 | -89.79896 | 34217 ft | 529 kts | 59° |
| 2026-05-04 09:25 | 51.26892 | -89.39012 | 34217 ft | 529 kts | 59° |
| 2026-05-04 09:26 | 51.30470 | -89.28798 | 34220 ft | 529 kts | 60° |
| 2026-05-04 09:26 | 51.34054 | -89.18524 | 34241 ft | 529 kts | 60° |
| 2026-05-04 09:27 | 51.37633 | -89.08222 | 34212 ft | 528 kts | 60° |
| 2026-05-04 09:27 | 51.41182 | -88.97967 | 34228 ft | 528 kts | 60° |
| 2026-05-04 09:28 | 51.44739 | -88.87645 | 34227 ft | 528 kts | 60° |
| 2026-05-04 09:28 | 51.48295 | -88.77285 | 34229 ft | 529 kts | 60° |
| 2026-05-04 09:29 | 51.51810 | -88.67000 | 34227 ft | 528 kts | 60° |
| 2026-05-04 09:29 | 51.55345 | -88.56614 | 34231 ft | 528 kts | 60° |
| 2026-05-04 09:30 | 51.58857 | -88.46252 | 34229 ft | 529 kts | 60° |
| 2026-05-04 09:30 | 51.62388 | -88.35793 | 34247 ft | 530 kts | 60° |
| 2026-05-04 09:31 | 51.65879 | -88.25408 | 34260 ft | 530 kts | 61° |
| 2026-05-04 09:31 | 51.69380 | -88.14949 | 34248 ft | 530 kts | 61° |
| 2026-05-04 09:32 | 51.72881 | -88.04448 | 34269 ft | 530 kts | 61° |
| 2026-05-04 09:34 | 51.86763 | -87.62360 | 34305 ft | 530 kts | 61° |
| 2026-05-04 09:34 | 51.90188 | -87.51863 | 34312 ft | 530 kts | 61° |
| 2026-05-04 09:35 | 51.93630 | -87.41270 | 34329 ft | 530 kts | 61° |
| 2026-05-04 09:35 | 51.97063 | -87.30661 | 34327 ft | 530 kts | 61° |
| 2026-05-04 09:37 | 52.10586 | -86.88413 | 34364 ft | 522 kts | 61° |
| 2026-05-04 09:38 | 52.13900 | -86.77948 | 34372 ft | 522 kts | 62° |
| 2026-05-04 09:38 | 52.17221 | -86.67417 | 34379 ft | 522 kts | 62° |
| 2026-05-04 09:39 | 52.20538 | -86.56851 | 34392 ft | 523 kts | 62° |
| 2026-05-04 09:39 | 52.23824 | -86.46339 | 34408 ft | 521 kts | 62° |
| 2026-05-04 09:40 | 52.27115 | -86.35768 | 34408 ft | 525 kts | 62° |
| 2026-05-04 09:40 | 52.30435 | -86.25057 | 34407 ft | 535 kts | 62° |
| 2026-05-04 09:42 | 52.43799 | -85.81444 | 34445 ft | 538 kts | 63° |
| 2026-05-04 09:43 | 52.46583 | -85.72258 | 34450 ft | 538 kts | 63° |
| 2026-05-04 09:43 | 52.49916 | -85.61215 | 34459 ft | 538 kts | 63° |
| 2026-05-04 09:44 | 52.53223 | -85.50206 | 34452 ft | 538 kts | 63° |
| 2026-05-04 09:46 | 52.66332 | -85.06069 | 34492 ft | 537 kts | 63° |
| 2026-05-04 09:46 | 52.69580 | -84.95001 | 34485 ft | 534 kts | 63° |
| 2026-05-04 09:47 | 52.72799 | -84.83984 | 34490 ft | 532 kts | 63° |
| 2026-05-04 09:49 | 52.85526 | -84.39920 | 34501 ft | 532 kts | 64° |
| 2026-05-04 09:51 | 52.96517 | -84.01189 | 34510 ft | 530 kts | 64° |
| 2026-05-04 09:51 | 52.99632 | -83.90094 | 34514 ft | 530 kts | 64° |
| 2026-05-04 09:52 | 53.02718 | -83.79052 | 34513 ft | 530 kts | 64° |
| 2026-05-04 09:52 | 53.05812 | -83.67923 | 34513 ft | 530 kts | 64° |
| 2026-05-04 09:53 | 53.08900 | -83.56766 | 34515 ft | 529 kts | 64° |
| 2026-05-04 09:53 | 53.11951 | -83.45691 | 34519 ft | 529 kts | 64° |
| 2026-05-04 09:54 | 53.15016 | -83.34510 | 34517 ft | 528 kts | 65° |
| 2026-05-04 09:54 | 53.18037 | -83.23435 | 34524 ft | 528 kts | 65° |
| 2026-05-04 09:55 | 53.21072 | -83.12258 | 34521 ft | 527 kts | 65° |
| 2026-05-04 09:55 | 53.24094 | -83.01071 | 34521 ft | 528 kts | 65° |
| 2026-05-04 09:56 | 53.27097 | -82.89902 | 34522 ft | 528 kts | 65° |
| 2026-05-04 09:56 | 53.30086 | -82.78731 | 34523 ft | 527 kts | 65° |
| 2026-05-04 09:57 | 53.33074 | -82.67508 | 34531 ft | 526 kts | 65° |
| 2026-05-04 09:57 | 53.36024 | -82.56373 | 34530 ft | 526 kts | 65° |
| 2026-05-04 09:58 | 53.38982 | -82.45152 | 34530 ft | 526 kts | 65° |
| 2026-05-04 09:58 | 53.41932 | -82.33908 | 34530 ft | 526 kts | 65° |
| 2026-05-04 10:00 | 53.53607 | -81.88846 | 34541 ft | 526 kts | 66° |
| 2026-05-04 10:04 | 53.73576 | -81.09598 | 34549 ft | 524 kts | 67° |
| 2026-05-04 10:04 | 53.76386 | -80.98216 | 34553 ft | 524 kts | 67° |
| 2026-05-04 10:05 | 53.79187 | -80.86811 | 34555 ft | 524 kts | 67° |
| 2026-05-04 10:05 | 53.81973 | -80.75408 | 34559 ft | 524 kts | 67° |
| 2026-05-04 10:06 | 53.84736 | -80.64038 | 34558 ft | 524 kts | 67° |
| 2026-05-04 10:06 | 53.87502 | -80.52597 | 34568 ft | 524 kts | 68° |
| 2026-05-04 10:08 | 53.97064 | -80.12579 | 34572 ft | 523 kts | 68° |
| 2026-05-04 10:08 | 53.99954 | -80.01213 | 34625 ft | 525 kts | 60° |
| 2026-05-04 10:09 | 54.03992 | -79.90959 | 34830 ft | 525 kts | 53° |
| 2026-05-04 10:09 | 54.08376 | -79.80989 | 35021 ft | 525 kts | 52° |
| 2026-05-04 10:10 | 54.10587 | -79.76040 | 35135 ft | 525 kts | 52° |
| 2026-05-04 10:10 | 54.12799 | -79.71077 | 35242 ft | 525 kts | 53° |
| 2026-05-04 10:10 | 54.17178 | -79.61168 | 35423 ft | 525 kts | 53° |
| 2026-05-04 10:11 | 54.21568 | -79.51139 | 35604 ft | 525 kts | 53° |
| 2026-05-04 10:11 | 54.25941 | -79.41091 | 35759 ft | 525 kts | 53° |
| 2026-05-04 10:12 | 54.30267 | -79.31110 | 35950 ft | 525 kts | 53° |
| 2026-05-04 10:12 | 54.34614 | -79.21042 | 36062 ft | 526 kts | 54° |
| 2026-05-04 10:13 | 54.38966 | -79.10925 | 36186 ft | 526 kts | 54° |
| 2026-05-04 10:13 | 54.43283 | -79.00847 | 36319 ft | 526 kts | 54° |
| 2026-05-04 10:14 | 54.47617 | -78.90689 | 36451 ft | 526 kts | 54° |
| 2026-05-04 10:16 | 54.62645 | -78.55140 | 36622 ft | 523 kts | 54° |
| 2026-05-04 10:16 | 54.64754 | -78.50110 | 36631 ft | 523 kts | 54° |
| 2026-05-04 10:16 | 54.69023 | -78.39898 | 36631 ft | 523 kts | 54° |
| 2026-05-04 10:17 | 54.73277 | -78.29678 | 36631 ft | 523 kts | 54° |
| 2026-05-04 10:19 | 54.90190 | -77.88630 | 36647 ft | 524 kts | 55° |
| 2026-05-04 10:19 | 54.94389 | -77.78334 | 36647 ft | 523 kts | 55° |
| 2026-05-04 10:20 | 54.98597 | -77.67968 | 36658 ft | 523 kts | 55° |
| 2026-05-04 10:20 | 55.02801 | -77.57572 | 36658 ft | 523 kts | 56° |
| 2026-05-04 10:21 | 55.06971 | -77.47217 | 36661 ft | 523 kts | 56° |
| 2026-05-04 10:21 | 55.11151 | -77.36792 | 36680 ft | 523 kts | 56° |
| 2026-05-04 10:22 | 55.17380 | -77.21177 | 36680 ft | 524 kts | 56° |
| 2026-05-04 10:23 | 55.21539 | -77.10695 | 36691 ft | 524 kts | 56° |
| 2026-05-04 10:25 | 55.37384 | -76.70346 | 36699 ft | 524 kts | 57° |
| 2026-05-04 10:25 | 55.42175 | -76.58017 | 36702 ft | 524 kts | 57° |
| 2026-05-04 10:26 | 55.45591 | -76.49185 | 36708 ft | 524 kts | 57° |
| 2026-05-04 10:26 | 55.49689 | -76.38553 | 36708 ft | 524 kts | 57° |
| 2026-05-04 10:27 | 55.53786 | -76.27875 | 36716 ft | 524 kts | 57° |
| 2026-05-04 10:27 | 55.57848 | -76.17239 | 36719 ft | 524 kts | 57° |
| 2026-05-04 10:28 | 55.61931 | -76.06504 | 36715 ft | 524 kts | 57° |
| 2026-05-04 10:28 | 55.65998 | -75.95762 | 36722 ft | 525 kts | 57° |
| 2026-05-04 10:29 | 55.70033 | -75.85061 | 36708 ft | 525 kts | 58° |
| 2026-05-04 10:29 | 55.74090 | -75.74254 | 36725 ft | 525 kts | 58° |
| 2026-05-04 10:30 | 55.78115 | -75.63484 | 36731 ft | 526 kts | 58° |
| 2026-05-04 10:30 | 55.82154 | -75.52627 | 36736 ft | 526 kts | 58° |
| 2026-05-04 10:31 | 55.86180 | -75.41759 | 36742 ft | 526 kts | 58° |
| 2026-05-04 10:32 | 56.00206 | -75.03513 | 36747 ft | 527 kts | 59° |
| 2026-05-04 10:33 | 56.04053 | -74.92448 | 36750 ft | 526 kts | 63° |
| 2026-05-04 10:33 | 56.07496 | -74.80892 | 36757 ft | 525 kts | 64° |
| 2026-05-04 10:34 | 56.10873 | -74.69323 | 36757 ft | 525 kts | 64° |
| 2026-05-04 10:34 | 56.14325 | -74.57723 | 36758 ft | 526 kts | 64° |
| 2026-05-04 10:35 | 56.17781 | -74.46208 | 36765 ft | 526 kts | 64° |
| 2026-05-04 10:35 | 56.21251 | -74.34624 | 36765 ft | 527 kts | 64° |
| 2026-05-04 10:36 | 56.24719 | -74.22981 | 36774 ft | 527 kts | 64° |
| 2026-05-04 10:36 | 56.28153 | -74.11385 | 36772 ft | 527 kts | 64° |
| 2026-05-04 10:37 | 56.31604 | -73.99671 | 36771 ft | 527 kts | 64° |
| 2026-05-04 10:37 | 56.35011 | -73.88045 | 36779 ft | 527 kts | 64° |
| 2026-05-04 10:39 | 56.46924 | -73.46944 | 36785 ft | 528 kts | 65° |
| 2026-05-04 10:40 | 56.50313 | -73.35116 | 36793 ft | 528 kts | 65° |
| 2026-05-04 10:40 | 56.53677 | -73.23317 | 36786 ft | 528 kts | 65° |
| 2026-05-04 10:41 | 56.57043 | -73.11449 | 36794 ft | 529 kts | 65° |
| 2026-05-04 10:41 | 56.60404 | -72.99539 | 36792 ft | 529 kts | 65° |
| 2026-05-04 10:42 | 56.63723 | -72.87717 | 36795 ft | 529 kts | 66° |
| 2026-05-04 10:42 | 56.67062 | -72.75763 | 36798 ft | 529 kts | 66° |
| 2026-05-04 10:43 | 56.70389 | -72.63786 | 36804 ft | 529 kts | 66° |
| 2026-05-04 10:45 | 56.83578 | -72.15690 | 36782 ft | 530 kts | 67° |
| 2026-05-04 10:45 | 56.86832 | -72.03667 | 36809 ft | 529 kts | 67° |
| 2026-05-04 10:46 | 56.90074 | -71.91623 | 36811 ft | 529 kts | 67° |
| 2026-05-04 10:46 | 56.93329 | -71.79470 | 36813 ft | 529 kts | 67° |
| 2026-05-04 10:47 | 56.96547 | -71.67386 | 36810 ft | 529 kts | 68° |
| 2026-05-04 10:47 | 56.99769 | -71.55221 | 36811 ft | 529 kts | 68° |
| 2026-05-04 10:49 | 57.12390 | -71.06947 | 36833 ft | 514 kts | 68° |
| 2026-05-04 10:50 | 57.15440 | -70.95106 | 36839 ft | 514 kts | 68° |
| 2026-05-04 10:52 | 57.27592 | -70.47342 | 36843 ft | 514 kts | 69° |
| 2026-05-04 10:52 | 57.30605 | -70.35340 | 36845 ft | 514 kts | 69° |
| 2026-05-04 10:54 | 57.42520 | -69.87225 | 36839 ft | 513 kts | 70° |
| 2026-05-04 10:56 | 57.54264 | -69.38746 | 36848 ft | 514 kts | 70° |
| 2026-05-04 10:57 | 57.57156 | -69.26639 | 36850 ft | 514 kts | 70° |
| 2026-05-04 10:57 | 57.60057 | -69.14427 | 36846 ft | 514 kts | 71° |
| 2026-05-04 10:58 | 57.62929 | -69.02267 | 36833 ft | 514 kts | 71° |
| 2026-05-04 10:58 | 57.65799 | -68.90046 | 36854 ft | 514 kts | 71° |
| 2026-05-04 10:59 | 57.68661 | -68.77792 | 36851 ft | 514 kts | 71° |
| 2026-05-04 10:59 | 57.71507 | -68.65535 | 36856 ft | 514 kts | 71° |
| 2026-05-04 11:00 | 57.74343 | -68.53250 | 36855 ft | 514 kts | 71° |
| 2026-05-04 11:02 | 57.85562 | -68.03947 | 36860 ft | 514 kts | 72° |
| 2026-05-04 11:05 | 58.06058 | -67.10778 | 36867 ft | 513 kts | 73° |
| 2026-05-04 11:06 | 58.08746 | -66.98253 | 36853 ft | 513 kts | 73° |
| 2026-05-04 11:06 | 58.11759 | -66.85935 | 36870 ft | 518 kts | 69° |
| 2026-05-04 11:10 | 58.33069 | -66.01841 | 36888 ft | 518 kts | 70° |
| 2026-05-04 11:12 | 58.45171 | -65.52104 | 36893 ft | 517 kts | 71° |
| 2026-05-04 11:12 | 58.48168 | -65.39603 | 36891 ft | 517 kts | 71° |
| 2026-05-04 11:13 | 58.51140 | -65.27138 | 36904 ft | 517 kts | 71° |
| 2026-05-04 11:13 | 58.54110 | -65.14614 | 36904 ft | 517 kts | 71° |
| 2026-05-04 11:14 | 58.57070 | -65.02053 | 36908 ft | 516 kts | 71° |
| 2026-05-04 11:16 | 58.68775 | -64.51663 | 36922 ft | 515 kts | 72° |
| 2026-05-04 11:16 | 58.71667 | -64.39026 | 36915 ft | 515 kts | 72° |
| 2026-05-04 11:17 | 58.74526 | -64.26453 | 36929 ft | 515 kts | 72° |
| 2026-05-04 11:19 | 58.85944 | -63.75510 | 36921 ft | 517 kts | 73° |
| 2026-05-04 11:19 | 58.88763 | -63.62751 | 36944 ft | 514 kts | 73° |
| 2026-05-04 11:20 | 58.91558 | -63.50008 | 36941 ft | 514 kts | 73° |
| 2026-05-04 11:20 | 58.94324 | -63.37314 | 36947 ft | 514 kts | 73° |
| 2026-05-04 11:22 | 59.05312 | -62.86149 | 36948 ft | 513 kts | 74° |
| 2026-05-04 11:23 | 59.08028 | -62.73298 | 36945 ft | 514 kts | 74° |
| 2026-05-04 11:25 | 59.17450 | -62.28101 | 36939 ft | 515 kts | 74° |
| 2026-05-04 11:25 | 59.20118 | -62.15120 | 36942 ft | 514 kts | 74° |
| 2026-05-04 11:27 | 59.31930 | -61.56609 | 36941 ft | 513 kts | 75° |
| 2026-05-04 11:28 | 59.34517 | -61.43558 | 36939 ft | 513 kts | 75° |
| 2026-05-04 11:28 | 59.37089 | -61.30500 | 36940 ft | 514 kts | 75° |
| 2026-05-04 11:29 | 59.39657 | -61.17372 | 36941 ft | 515 kts | 75° |
| 2026-05-04 11:29 | 59.42213 | -61.04223 | 36941 ft | 515 kts | 75° |
| 2026-05-04 11:33 | 59.59680 | -60.11926 | 36941 ft | 515 kts | 75° |
| 2026-05-04 11:33 | 59.62128 | -59.98633 | 36941 ft | 514 kts | 76° |
| 2026-05-04 11:34 | 59.64562 | -59.85318 | 36935 ft | 513 kts | 75° |
| 2026-05-04 11:34 | 59.66978 | -59.72006 | 36945 ft | 515 kts | 75° |
| 2026-05-04 11:35 | 59.69378 | -59.58690 | 36939 ft | 515 kts | 76° |
| 2026-05-04 11:35 | 59.71774 | -59.45307 | 36942 ft | 515 kts | 76° |
| 2026-05-04 11:36 | 59.74151 | -59.31934 | 36940 ft | 515 kts | 76° |
| 2026-05-04 11:36 | 59.76519 | -59.18517 | 36943 ft | 515 kts | 76° |
| 2026-05-04 11:37 | 59.78860 | -59.05150 | 36941 ft | 516 kts | 76° |
| 2026-05-04 11:37 | 59.81210 | -58.91632 | 36951 ft | 518 kts | 76° |
| 2026-05-04 11:38 | 59.83554 | -58.78061 | 36940 ft | 517 kts | 76° |
| 2026-05-04 11:38 | 59.85868 | -58.64569 | 36947 ft | 516 kts | 76° |
| 2026-05-04 11:39 | 59.88175 | -58.51004 | 36945 ft | 516 kts | 76° |
| 2026-05-04 11:41 | 59.96151 | -58.03323 | 36955 ft | 520 kts | 76° |
| 2026-05-04 11:41 | 59.98400 | -57.89665 | 36939 ft | 520 kts | 76° |
| 2026-05-04 11:42 | 60.00629 | -57.75935 | 36950 ft | 518 kts | 76° |
| 2026-05-04 11:42 | 60.02840 | -57.62191 | 36956 ft | 518 kts | 77° |
| 2026-05-04 11:43 | 60.05027 | -57.48502 | 36952 ft | 521 kts | 76° |
| 2026-05-04 11:43 | 60.07230 | -57.34610 | 36954 ft | 523 kts | 76° |
| 2026-05-04 11:44 | 60.09419 | -57.20720 | 36955 ft | 523 kts | 77° |
| 2026-05-04 11:44 | 60.11583 | -57.06877 | 36959 ft | 523 kts | 77° |
| 2026-05-04 11:45 | 60.13745 | -56.92926 | 36961 ft | 523 kts | 77° |
| 2026-05-04 11:45 | 60.15889 | -56.78979 | 36953 ft | 522 kts | 77° |
| 2026-05-04 11:46 | 60.18021 | -56.64986 | 36954 ft | 525 kts | 76° |
| 2026-05-04 11:46 | 60.20150 | -56.50903 | 36958 ft | 526 kts | 77° |
| 2026-05-04 11:47 | 60.22252 | -56.36895 | 36965 ft | 526 kts | 77° |
| 2026-05-04 11:47 | 60.24354 | -56.22761 | 36965 ft | 525 kts | 77° |
| 2026-05-04 11:48 | 60.26425 | -56.08721 | 36971 ft | 525 kts | 77° |
| 2026-05-04 11:48 | 60.28493 | -55.94579 | 36961 ft | 525 kts | 77° |
| 2026-05-04 11:49 | 60.30543 | -55.80435 | 36968 ft | 525 kts | 77° |
| 2026-05-04 11:49 | 60.32578 | -55.66276 | 36969 ft | 524 kts | 77° |
| 2026-05-04 11:50 | 60.34255 | -55.54517 | 36969 ft | 524 kts | 77° |
| 2026-05-04 11:50 | 60.36584 | -55.38037 | 36969 ft | 524 kts | 77° |
| 2026-05-04 11:51 | 60.38239 | -55.26228 | 36969 ft | 524 kts | 77° |
| 2026-05-04 11:51 | 60.40221 | -55.11965 | 36973 ft | 527 kts | 77° |
| 2026-05-04 11:52 | 60.42185 | -54.97697 | 36969 ft | 529 kts | 77° |
| 2026-05-04 11:52 | 60.44151 | -54.83307 | 36970 ft | 529 kts | 77° |
| 2026-05-04 11:53 | 60.46088 | -54.68988 | 36969 ft | 528 kts | 77° |
| 2026-05-04 11:53 | 60.48015 | -54.54619 | 36972 ft | 528 kts | 77° |
| 2026-05-04 11:55 | 60.55582 | -53.96827 | 36986 ft | 532 kts | 78° |
| 2026-05-04 11:56 | 60.57448 | -53.82242 | 36985 ft | 532 kts | 78° |
| 2026-05-04 11:56 | 60.59287 | -53.67723 | 36984 ft | 532 kts | 78° |
| 2026-05-04 11:57 | 60.61119 | -53.53112 | 36986 ft | 532 kts | 77° |
| 2026-05-04 11:57 | 60.62940 | -53.38437 | 36993 ft | 535 kts | 77° |
| 2026-05-04 11:58 | 60.64743 | -53.23773 | 36996 ft | 536 kts | 77° |
| 2026-05-04 11:58 | 60.66543 | -53.08990 | 36989 ft | 536 kts | 78° |
| 2026-05-04 11:59 | 60.68311 | -52.94315 | 36994 ft | 536 kts | 78° |
| 2026-05-04 11:59 | 60.70079 | -52.79488 | 37000 ft | 536 kts | 78° |
| 2026-05-04 12:00 | 60.71830 | -52.64652 | 36998 ft | 538 kts | 77° |
| 2026-05-04 12:00 | 60.73572 | -52.49734 | 37005 ft | 540 kts | 78° |
| 2026-05-04 12:01 | 60.75295 | -52.34820 | 37008 ft | 540 kts | 78° |
| 2026-05-04 12:02 | 60.81195 | -51.82498 | 37020 ft | 540 kts | 77° |
| 2026-05-04 12:03 | 60.82852 | -51.67441 | 37017 ft | 540 kts | 77° |
| 2026-05-04 12:03 | 60.84478 | -51.52495 | 37026 ft | 540 kts | 77° |
| 2026-05-04 12:04 | 60.86100 | -51.37411 | 37031 ft | 540 kts | 78° |
| 2026-05-04 12:04 | 60.87696 | -51.22403 | 37032 ft | 540 kts | 78° |
| 2026-05-04 12:05 | 60.89284 | -51.07294 | 37047 ft | 540 kts | 77° |
| 2026-05-04 12:05 | 60.90852 | -50.92201 | 37047 ft | 539 kts | 77° |
| 2026-05-04 12:06 | 60.92390 | -50.77224 | 37044 ft | 539 kts | 77° |
| 2026-05-04 12:06 | 60.93925 | -50.62089 | 37047 ft | 539 kts | 77° |
| 2026-05-04 12:07 | 60.95433 | -50.47048 | 37049 ft | 539 kts | 77° |
| 2026-05-04 12:07 | 60.96931 | -50.31916 | 37059 ft | 539 kts | 77° |
| 2026-05-04 12:08 | 60.98413 | -50.16761 | 37071 ft | 538 kts | 77° |
| 2026-05-04 12:08 | 60.99829 | -50.01606 | 37064 ft | 538 kts | 81° |
| 2026-05-04 12:09 | 61.00553 | -49.86302 | 37073 ft | 538 kts | 84° |
| 2026-05-04 12:09 | 61.01107 | -49.70899 | 37080 ft | 538 kts | 85° |
| 2026-05-04 12:10 | 61.01614 | -49.55566 | 37080 ft | 538 kts | 85° |
| 2026-05-04 12:10 | 61.02115 | -49.40163 | 37087 ft | 538 kts | 85° |
| 2026-05-04 12:11 | 61.02607 | -49.24761 | 37090 ft | 537 kts | 85° |
| 2026-05-04 12:11 | 61.03083 | -49.09370 | 37092 ft | 535 kts | 85° |
| 2026-05-04 12:12 | 61.03536 | -48.94140 | 37096 ft | 535 kts | 85° |
| 2026-05-04 12:12 | 61.03977 | -48.78766 | 37097 ft | 535 kts | 85° |
| 2026-05-04 12:14 | 61.05554 | -48.17503 | 37122 ft | 534 kts | 86° |
| 2026-05-04 12:15 | 61.05905 | -48.02183 | 37121 ft | 534 kts | 86° |
| 2026-05-04 12:15 | 61.06241 | -47.86837 | 37134 ft | 533 kts | 86° |
| 2026-05-04 12:16 | 61.06557 | -47.71523 | 37133 ft | 533 kts | 86° |
| 2026-05-04 12:16 | 61.06855 | -47.56248 | 37147 ft | 533 kts | 86° |
| 2026-05-04 12:17 | 61.07135 | -47.40998 | 37153 ft | 533 kts | 86° |
| 2026-05-04 12:17 | 61.07399 | -47.25667 | 37154 ft | 532 kts | 86° |
| 2026-05-04 12:18 | 61.07646 | -47.10374 | 37155 ft | 532 kts | 86° |
| 2026-05-04 12:18 | 61.07875 | -46.95123 | 37156 ft | 532 kts | 87° |
| 2026-05-04 12:19 | 61.08086 | -46.79892 | 37155 ft | 532 kts | 87° |
| 2026-05-04 12:19 | 61.08281 | -46.64591 | 37163 ft | 532 kts | 87° |
| 2026-05-04 12:20 | 61.08458 | -46.49281 | 37160 ft | 532 kts | 87° |
| 2026-05-04 12:20 | 61.08618 | -46.33985 | 37169 ft | 531 kts | 88° |
| 2026-05-04 12:21 | 61.08760 | -46.18815 | 37162 ft | 531 kts | 88° |
| 2026-05-04 12:21 | 61.08886 | -46.03515 | 37163 ft | 531 kts | 88° |
| 2026-05-04 12:22 | 61.08993 | -45.88316 | 37161 ft | 531 kts | 88° |
| 2026-05-04 12:22 | 61.09084 | -45.73015 | 37159 ft | 531 kts | 88° |
| 2026-05-04 12:23 | 61.09158 | -45.57748 | 37154 ft | 531 kts | 88° |
| 2026-05-04 12:23 | 61.09214 | -45.42491 | 37160 ft | 531 kts | 88° |
| 2026-05-04 12:24 | 61.09253 | -45.27242 | 37156 ft | 530 kts | 89° |
| 2026-05-04 12:24 | 61.09276 | -45.12003 | 37156 ft | 529 kts | 89° |
| 2026-05-04 12:25 | 61.09281 | -44.96843 | 37150 ft | 529 kts | 89° |
| 2026-05-04 12:25 | 61.09269 | -44.81595 | 37141 ft | 530 kts | 89° |
| 2026-05-04 12:26 | 61.09240 | -44.66413 | 37135 ft | 530 kts | 89° |
| 2026-05-04 12:26 | 61.09193 | -44.51158 | 37129 ft | 530 kts | 89° |
| 2026-05-04 12:27 | 61.09130 | -44.36007 | 37130 ft | 529 kts | 89° |
| 2026-05-04 12:27 | 61.09050 | -44.20819 | 37127 ft | 528 kts | 90° |
| 2026-05-04 12:28 | 61.08952 | -44.05583 | 37126 ft | 528 kts | 90° |
| 2026-05-04 12:28 | 61.08838 | -43.90470 | 37160 ft | 528 kts | 90° |
| 2026-05-04 12:29 | 61.08707 | -43.75261 | 37159 ft | 528 kts | 90° |
| 2026-05-04 12:29 | 61.08559 | -43.60166 | 37181 ft | 528 kts | 90° |
| 2026-05-04 12:30 | 61.08393 | -43.44969 | 37220 ft | 527 kts | 90° |
| 2026-05-04 12:30 | 61.08212 | -43.29845 | 37207 ft | 525 kts | 91° |
| 2026-05-04 12:31 | 61.08015 | -43.14819 | 37216 ft | 525 kts | 91° |
| 2026-05-04 12:31 | 61.07800 | -42.99694 | 37218 ft | 525 kts | 91° |
| 2026-05-04 12:32 | 61.07447 | -42.77130 | 37235 ft | 525 kts | 91° |
| 2026-05-04 12:33 | 61.07191 | -42.62123 | 37237 ft | 525 kts | 91° |
| 2026-05-04 12:33 | 61.06917 | -42.47060 | 37254 ft | 525 kts | 92° |
| 2026-05-04 12:34 | 61.06627 | -42.31971 | 37228 ft | 524 kts | 92° |
| 2026-05-04 12:34 | 61.06373 | -42.19452 | 37233 ft | 524 kts | 92° |
| 2026-05-04 12:35 | 61.05998 | -42.01940 | 37237 ft | 524 kts | 92° |
| 2026-05-04 12:35 | 61.05714 | -41.89342 | 37236 ft | 524 kts | 92° |
| 2026-05-04 12:36 | 61.05362 | -41.74380 | 37225 ft | 524 kts | 92° |
| 2026-05-04 12:36 | 61.04993 | -41.59390 | 37217 ft | 524 kts | 92° |
| 2026-05-04 12:37 | 61.04606 | -41.44381 | 37224 ft | 523 kts | 93° |
| 2026-05-04 12:37 | 61.04204 | -41.29407 | 37225 ft | 522 kts | 93° |
| 2026-05-04 12:38 | 61.03784 | -41.14402 | 37222 ft | 522 kts | 93° |
| 2026-05-04 12:38 | 61.03349 | -40.99483 | 37219 ft | 522 kts | 94° |
| 2026-05-04 12:39 | 61.02896 | -40.84497 | 37205 ft | 522 kts | 94° |
| 2026-05-04 12:39 | 61.02429 | -40.69590 | 37209 ft | 522 kts | 94° |
| 2026-05-04 12:40 | 61.01944 | -40.54631 | 37210 ft | 522 kts | 94° |
| 2026-05-04 12:40 | 61.01443 | -40.39702 | 37193 ft | 521 kts | 94° |
| 2026-05-04 12:41 | 61.00926 | -40.24804 | 37209 ft | 521 kts | 94° |
| 2026-05-04 12:41 | 61.00396 | -40.09994 | 37208 ft | 521 kts | 94° |
| 2026-05-04 12:42 | 60.99830 | -39.95080 | 37195 ft | 521 kts | 96° |
| 2026-05-04 12:42 | 60.98948 | -39.80243 | 37201 ft | 521 kts | 98° |
| 2026-05-04 12:43 | 60.97949 | -39.65549 | 37198 ft | 520 kts | 98° |
| 2026-05-04 12:43 | 60.96966 | -39.50781 | 37206 ft | 520 kts | 98° |
| 2026-05-04 12:44 | 60.96003 | -39.36021 | 37207 ft | 520 kts | 98° |
| 2026-05-04 12:44 | 60.95041 | -39.21359 | 37202 ft | 520 kts | 98° |
| 2026-05-04 12:45 | 60.94055 | -39.06579 | 37204 ft | 520 kts | 98° |
| 2026-05-04 12:45 | 60.93052 | -38.91837 | 37192 ft | 520 kts | 98° |
| 2026-05-04 12:46 | 60.92039 | -38.77201 | 37194 ft | 520 kts | 98° |
| 2026-05-04 12:46 | 60.91003 | -38.62482 | 37194 ft | 519 kts | 98° |
| 2026-05-04 12:47 | 60.89951 | -38.47759 | 37192 ft | 519 kts | 98° |
| 2026-05-04 12:47 | 60.88884 | -38.33066 | 37197 ft | 520 kts | 99° |
| 2026-05-04 12:48 | 60.87805 | -38.18446 | 37194 ft | 520 kts | 99° |
| 2026-05-04 12:48 | 60.86704 | -38.03748 | 37194 ft | 520 kts | 99° |
| 2026-05-04 12:49 | 60.85587 | -37.89059 | 37177 ft | 520 kts | 99° |
| 2026-05-04 12:49 | 60.84462 | -37.74484 | 37195 ft | 519 kts | 99° |
| 2026-05-04 12:50 | 60.83315 | -37.59829 | 37200 ft | 519 kts | 99° |
| 2026-05-04 12:50 | 60.82158 | -37.45268 | 37196 ft | 519 kts | 99° |
| 2026-05-04 12:51 | 60.80981 | -37.30670 | 37198 ft | 519 kts | 99° |
| 2026-05-04 12:51 | 60.79788 | -37.16076 | 37198 ft | 519 kts | 100° |
| 2026-05-04 12:52 | 60.78574 | -37.01438 | 37198 ft | 519 kts | 100° |
| 2026-05-04 12:52 | 60.77356 | -36.86948 | 37196 ft | 519 kts | 100° |
| 2026-05-04 12:53 | 60.76116 | -36.72381 | 37202 ft | 518 kts | 100° |
| 2026-05-04 12:53 | 60.74869 | -36.57942 | 37203 ft | 518 kts | 100° |
| 2026-05-04 12:54 | 60.73597 | -36.43401 | 37211 ft | 518 kts | 100° |
| 2026-05-04 12:54 | 60.72310 | -36.28887 | 37209 ft | 519 kts | 101° |
| 2026-05-04 12:55 | 60.71007 | -36.14367 | 37210 ft | 519 kts | 101° |
| 2026-05-04 12:55 | 60.69693 | -35.99920 | 37212 ft | 518 kts | 101° |
| 2026-05-04 12:56 | 60.68369 | -35.85546 | 37214 ft | 517 kts | 101° |
| 2026-05-04 12:56 | 60.67019 | -35.71069 | 37222 ft | 517 kts | 101° |
| 2026-05-04 12:57 | 60.65663 | -35.56698 | 37225 ft | 517 kts | 101° |
| 2026-05-04 12:57 | 60.64284 | -35.42274 | 37224 ft | 517 kts | 101° |
| 2026-05-04 12:58 | 60.62892 | -35.27874 | 37231 ft | 518 kts | 101° |
| 2026-05-04 12:58 | 60.61491 | -35.13562 | 37230 ft | 517 kts | 101° |
| 2026-05-04 12:59 | 60.60069 | -34.99195 | 37236 ft | 516 kts | 101° |
| 2026-05-04 12:59 | 60.58632 | -34.84855 | 37238 ft | 516 kts | 102° |
| 2026-05-04 13:00 | 60.57189 | -34.70619 | 37238 ft | 516 kts | 102° |
| 2026-05-04 13:00 | 60.55722 | -34.56306 | 37249 ft | 516 kts | 102° |
| 2026-05-04 13:01 | 60.54251 | -34.42112 | 37246 ft | 516 kts | 102° |
| 2026-05-04 13:01 | 60.52753 | -34.27824 | 37240 ft | 516 kts | 102° |
| 2026-05-04 13:02 | 60.51244 | -34.13578 | 37249 ft | 515 kts | 102° |
| 2026-05-04 13:02 | 60.49721 | -33.99367 | 37248 ft | 514 kts | 102° |
| 2026-05-04 13:03 | 60.48196 | -33.85281 | 37247 ft | 514 kts | 102° |
| 2026-05-04 13:03 | 60.46642 | -33.71089 | 37252 ft | 514 kts | 102° |
| 2026-05-04 13:04 | 60.45080 | -33.56968 | 37256 ft | 514 kts | 103° |
| 2026-05-04 13:04 | 60.43498 | -33.42815 | 37249 ft | 515 kts | 103° |
| 2026-05-04 13:05 | 60.41898 | -33.28655 | 37249 ft | 515 kts | 103° |
| 2026-05-04 13:05 | 60.40293 | -33.14589 | 37247 ft | 515 kts | 103° |
| 2026-05-04 13:06 | 60.38660 | -33.00429 | 37264 ft | 515 kts | 103° |
| 2026-05-04 13:06 | 60.37014 | -32.86298 | 37266 ft | 515 kts | 103° |
| 2026-05-04 13:07 | 60.35369 | -32.72310 | 37261 ft | 515 kts | 103° |
| 2026-05-04 13:07 | 60.33694 | -32.58212 | 37254 ft | 515 kts | 103° |
| 2026-05-04 13:08 | 60.32004 | -32.44130 | 37247 ft | 514 kts | 104° |
| 2026-05-04 13:08 | 60.30315 | -32.30194 | 37255 ft | 514 kts | 104° |
| 2026-05-04 13:09 | 60.28599 | -32.16168 | 37250 ft | 514 kts | 104° |
| 2026-05-04 13:09 | 60.26868 | -32.02161 | 37247 ft | 514 kts | 104° |
| 2026-05-04 13:10 | 60.25134 | -31.88259 | 37264 ft | 514 kts | 104° |
| 2026-05-04 13:10 | 60.23386 | -31.74371 | 37260 ft | 514 kts | 104° |
| 2026-05-04 13:11 | 60.21617 | -31.60451 | 37267 ft | 513 kts | 104° |
| 2026-05-04 13:11 | 60.19831 | -31.46528 | 37249 ft | 512 kts | 104° |
| 2026-05-04 13:12 | 60.18044 | -31.32725 | 37252 ft | 512 kts | 105° |
| 2026-05-04 13:12 | 60.16232 | -31.18851 | 37242 ft | 512 kts | 105° |
| 2026-05-04 13:13 | 60.14407 | -31.05007 | 37251 ft | 512 kts | 105° |
| 2026-05-04 13:13 | 60.12567 | -30.91176 | 37264 ft | 512 kts | 105° |
| 2026-05-04 13:14 | 60.10724 | -30.77443 | 37255 ft | 512 kts | 105° |
| 2026-05-04 13:14 | 60.08861 | -30.63684 | 37264 ft | 511 kts | 105° |
| 2026-05-04 13:15 | 60.06985 | -30.49946 | 37260 ft | 512 kts | 105° |
| 2026-05-04 13:15 | 60.05095 | -30.36226 | 37243 ft | 512 kts | 105° |
| 2026-05-04 13:16 | 60.03182 | -30.22462 | 37260 ft | 512 kts | 105° |
| 2026-05-04 13:16 | 60.01267 | -30.08802 | 37260 ft | 512 kts | 106° |
| 2026-05-04 13:17 | 59.99756 | -29.94896 | 37254 ft | 512 kts | 98° |
| 2026-05-04 13:17 | 59.98820 | -29.80792 | 37253 ft | 511 kts | 96° |
| 2026-05-04 13:18 | 59.98110 | -29.69049 | 37250 ft | 511 kts | 96° |
| 2026-05-04 13:18 | 59.97249 | -29.54927 | 37245 ft | 511 kts | 96° |
| 2026-05-04 13:19 | 59.96364 | -29.40906 | 37251 ft | 512 kts | 97° |
| 2026-05-04 13:19 | 59.95451 | -29.26805 | 37262 ft | 511 kts | 97° |
| 2026-05-04 13:20 | 59.94519 | -29.12701 | 37252 ft | 512 kts | 97° |
| 2026-05-04 13:20 | 59.93578 | -28.98672 | 37246 ft | 512 kts | 97° |
| 2026-05-04 13:21 | 59.92619 | -28.84593 | 37258 ft | 511 kts | 97° |
| 2026-05-04 13:21 | 59.91645 | -28.70541 | 37259 ft | 511 kts | 97° |
| 2026-05-04 13:22 | 59.90662 | -28.56558 | 37257 ft | 511 kts | 97° |
| 2026-05-04 13:22 | 59.89657 | -28.42493 | 37255 ft | 511 kts | 97° |
| 2026-05-04 13:23 | 59.88643 | -28.28521 | 37257 ft | 511 kts | 98° |
| 2026-05-04 13:23 | 59.87609 | -28.14489 | 37252 ft | 511 kts | 98° |
| 2026-05-04 13:24 | 59.86560 | -28.00466 | 37244 ft | 511 kts | 98° |
| 2026-05-04 13:24 | 59.85497 | -27.86461 | 37222 ft | 511 kts | 98° |
| 2026-05-04 13:25 | 59.83878 | -27.65502 | 37240 ft | 510 kts | 98° |
| 2026-05-04 13:25 | 59.82787 | -27.51638 | 37241 ft | 510 kts | 98° |
| 2026-05-04 13:26 | 59.81673 | -27.37671 | 37243 ft | 510 kts | 98° |
| 2026-05-04 13:26 | 59.80545 | -27.23729 | 37232 ft | 510 kts | 98° |
| 2026-05-04 13:27 | 59.79401 | -27.09771 | 37239 ft | 511 kts | 99° |
| 2026-05-04 13:27 | 59.78248 | -26.95903 | 37240 ft | 511 kts | 99° |
| 2026-05-04 13:28 | 59.77073 | -26.81954 | 37216 ft | 511 kts | 99° |
| 2026-05-04 13:28 | 59.75887 | -26.68049 | 37238 ft | 511 kts | 99° |
| 2026-05-04 13:29 | 59.74690 | -26.54206 | 37236 ft | 511 kts | 99° |
| 2026-05-04 13:29 | 59.73472 | -26.40297 | 37233 ft | 511 kts | 99° |
| 2026-05-04 13:30 | 59.72243 | -26.26447 | 37230 ft | 512 kts | 99° |
| 2026-05-04 13:30 | 59.71001 | -26.12612 | 37230 ft | 512 kts | 99° |
| 2026-05-04 13:31 | 59.69737 | -25.98716 | 37233 ft | 512 kts | 99° |
| 2026-05-04 13:31 | 59.68458 | -25.84827 | 37238 ft | 511 kts | 100° |
| 2026-05-04 13:32 | 59.67173 | -25.71030 | 37230 ft | 511 kts | 100° |
| 2026-05-04 13:32 | 59.65863 | -25.57142 | 37227 ft | 512 kts | 100° |
| 2026-05-04 13:33 | 59.64549 | -25.43368 | 37223 ft | 512 kts | 100° |
| 2026-05-04 13:33 | 59.63210 | -25.29506 | 37224 ft | 512 kts | 100° |
| 2026-05-04 13:34 | 59.61864 | -25.15731 | 37226 ft | 512 kts | 100° |
| 2026-05-04 13:34 | 59.60498 | -25.01901 | 37223 ft | 512 kts | 101° |
| 2026-05-04 13:35 | 59.58421 | -24.81188 | 37227 ft | 512 kts | 101° |
| 2026-05-04 13:36 | 59.57029 | -24.67489 | 37222 ft | 513 kts | 101° |
| 2026-05-04 13:36 | 59.55612 | -24.53706 | 37233 ft | 513 kts | 101° |
| 2026-05-04 13:37 | 59.54176 | -24.39886 | 37234 ft | 513 kts | 101° |
| 2026-05-04 13:37 | 59.52733 | -24.26152 | 37233 ft | 513 kts | 101° |
| 2026-05-04 13:38 | 59.51270 | -24.12376 | 37226 ft | 513 kts | 101° |
| 2026-05-04 13:38 | 59.49791 | -23.98597 | 37228 ft | 513 kts | 101° |
| 2026-05-04 13:39 | 59.48302 | -23.84881 | 37220 ft | 514 kts | 101° |
| 2026-05-04 13:39 | 59.46792 | -23.71104 | 37225 ft | 514 kts | 102° |
| 2026-05-04 13:40 | 59.45268 | -23.57352 | 37220 ft | 514 kts | 102° |
| 2026-05-04 13:40 | 59.43735 | -23.43652 | 37223 ft | 514 kts | 102° |
| 2026-05-04 13:41 | 59.42191 | -23.30004 | 37216 ft | 514 kts | 102° |
| 2026-05-04 13:41 | 59.40621 | -23.16259 | 37221 ft | 515 kts | 102° |
| 2026-05-04 13:42 | 59.38248 | -22.95746 | 37218 ft | 515 kts | 102° |
| 2026-05-04 13:42 | 59.36642 | -22.82034 | 37216 ft | 515 kts | 102° |
| 2026-05-04 13:43 | 59.35021 | -22.68328 | 37196 ft | 515 kts | 102° |
| 2026-05-04 13:43 | 59.33392 | -22.54689 | 37215 ft | 515 kts | 103° |
| 2026-05-04 13:44 | 59.31740 | -22.40998 | 37222 ft | 515 kts | 103° |
| 2026-05-04 13:44 | 59.30087 | -22.27419 | 37211 ft | 516 kts | 103° |
| 2026-05-04 13:45 | 59.28404 | -22.13731 | 37209 ft | 516 kts | 103° |
| 2026-05-04 13:45 | 59.26706 | -22.00053 | 37211 ft | 516 kts | 103° |
| 2026-05-04 13:46 | 59.24999 | -21.86426 | 37210 ft | 516 kts | 103° |
| 2026-05-04 13:46 | 59.23287 | -21.72881 | 37210 ft | 516 kts | 103° |
| 2026-05-04 13:47 | 59.21547 | -21.59251 | 37207 ft | 517 kts | 103° |
| 2026-05-04 13:47 | 59.19790 | -21.45613 | 37202 ft | 518 kts | 103° |
| 2026-05-04 13:48 | 59.18028 | -21.32055 | 37207 ft | 518 kts | 104° |
| 2026-05-04 13:48 | 59.16242 | -21.18438 | 37206 ft | 518 kts | 104° |
| 2026-05-04 13:49 | 59.14451 | -21.04902 | 37204 ft | 518 kts | 104° |
| 2026-05-04 13:49 | 59.12637 | -20.91316 | 37201 ft | 518 kts | 104° |
| 2026-05-04 13:50 | 59.10804 | -20.77708 | 37200 ft | 518 kts | 104° |
| 2026-05-04 13:50 | 59.08970 | -20.64208 | 37185 ft | 518 kts | 104° |
| 2026-05-04 13:51 | 59.07108 | -20.50630 | 37198 ft | 519 kts | 104° |
| 2026-05-04 13:51 | 59.05230 | -20.37047 | 37197 ft | 519 kts | 104° |
| 2026-05-04 13:52 | 59.02398 | -20.16781 | 37191 ft | 519 kts | 105° |
| 2026-05-04 13:53 | 59.00463 | -20.03279 | 37186 ft | 519 kts | 108° |
| 2026-05-04 13:53 | 58.97706 | -19.90418 | 37189 ft | 519 kts | 115° |
| 2026-05-04 13:54 | 58.93059 | -19.71468 | 37179 ft | 519 kts | 116° |
| 2026-05-04 13:55 | 58.88362 | -19.52673 | 37184 ft | 518 kts | 116° |
| 2026-05-04 13:55 | 58.83641 | -19.33822 | 37184 ft | 518 kts | 116° |
| 2026-05-04 13:56 | 58.80486 | -19.21296 | 37183 ft | 519 kts | 116° |
| 2026-05-04 13:57 | 58.75742 | -19.02597 | 37161 ft | 519 kts | 116° |
| 2026-05-04 13:58 | 58.69355 | -18.77672 | 37183 ft | 518 kts | 117° |
| 2026-05-04 13:58 | 58.64559 | -18.59138 | 37173 ft | 518 kts | 117° |
| 2026-05-04 13:59 | 58.61334 | -18.46761 | 37194 ft | 518 kts | 117° |
| 2026-05-04 14:00 | 58.57022 | -18.30320 | 37155 ft | 519 kts | 117° |
| 2026-05-04 14:00 | 58.52142 | -18.11852 | 37176 ft | 518 kts | 117° |
| 2026-05-04 14:01 | 58.48872 | -17.99566 | 37173 ft | 518 kts | 117° |
| 2026-05-04 14:02 | 58.43945 | -17.81177 | 37169 ft | 517 kts | 117° |
| 2026-05-04 14:02 | 58.40665 | -17.69015 | 37165 ft | 517 kts | 118° |
| 2026-05-04 14:03 | 58.37350 | -17.56793 | 37156 ft | 518 kts | 118° |
| 2026-05-04 14:03 | 58.34042 | -17.44661 | 37162 ft | 517 kts | 118° |
| 2026-05-04 14:04 | 58.29036 | -17.26420 | 37154 ft | 517 kts | 118° |
| 2026-05-04 14:04 | 58.25711 | -17.14388 | 37155 ft | 517 kts | 118° |
| 2026-05-04 14:05 | 58.20657 | -16.96217 | 37152 ft | 517 kts | 118° |
| 2026-05-04 14:06 | 58.17300 | -16.84227 | 37170 ft | 516 kts | 118° |
| 2026-05-04 14:06 | 58.13915 | -16.72201 | 37154 ft | 517 kts | 119° |
| 2026-05-04 14:07 | 58.10480 | -16.60063 | 37142 ft | 528 kts | 119° |
| 2026-05-04 14:07 | 58.07004 | -16.47842 | 37161 ft | 532 kts | 119° |
| 2026-05-04 14:08 | 58.03482 | -16.35522 | 37140 ft | 531 kts | 119° |
| 2026-05-04 14:08 | 57.99955 | -16.23251 | 37145 ft | 531 kts | 119° |
| 2026-05-04 14:09 | 57.94662 | -16.04960 | 37148 ft | 530 kts | 119° |
| 2026-05-04 14:10 | 57.89349 | -15.86747 | 37144 ft | 531 kts | 120° |
| 2026-05-04 14:10 | 57.85774 | -15.74572 | 37139 ft | 531 kts | 120° |
| 2026-05-04 14:11 | 57.82193 | -15.62438 | 37145 ft | 531 kts | 120° |
| 2026-05-04 14:11 | 57.76813 | -15.44328 | 37119 ft | 531 kts | 120° |
| 2026-05-04 14:12 | 57.73207 | -15.32267 | 37116 ft | 531 kts | 120° |
| 2026-05-04 14:13 | 57.67779 | -15.14232 | 37125 ft | 533 kts | 120° |
| 2026-05-04 14:13 | 57.64131 | -15.02189 | 37128 ft | 533 kts | 120° |
| 2026-05-04 14:14 | 57.60467 | -14.90151 | 37126 ft | 533 kts | 120° |
| 2026-05-04 14:14 | 57.54963 | -14.72187 | 37118 ft | 531 kts | 121° |
| 2026-05-04 14:15 | 57.47608 | -14.48398 | 37117 ft | 532 kts | 121° |
| 2026-05-04 14:16 | 57.42032 | -14.30519 | 37118 ft | 532 kts | 121° |
| 2026-05-04 14:17 | 57.36454 | -14.12766 | 37111 ft | 532 kts | 121° |
| 2026-05-04 14:18 | 57.30825 | -13.94990 | 37112 ft | 531 kts | 121° |
| 2026-05-04 14:19 | 57.23325 | -13.71509 | 37104 ft | 531 kts | 121° |
| 2026-05-04 14:19 | 57.19552 | -13.59781 | 37087 ft | 532 kts | 122° |
| 2026-05-04 14:20 | 57.15766 | -13.48072 | 37103 ft | 530 kts | 122° |
| 2026-05-04 14:20 | 57.11996 | -13.36472 | 37102 ft | 530 kts | 122° |
| 2026-05-04 14:21 | 57.06292 | -13.19024 | 37096 ft | 530 kts | 122° |
| 2026-05-04 14:21 | 57.02416 | -13.07488 | 37096 ft | 529 kts | 127° |
| 2026-05-04 14:22 | 56.97389 | -12.97765 | 37076 ft | 524 kts | 145° |
| 2026-05-04 14:22 | 56.91272 | -12.90739 | 37095 ft | 521 kts | 153° |
| 2026-05-04 14:23 | 56.82136 | -12.79949 | 37095 ft | 525 kts | 139° |
| 2026-05-04 14:23 | 56.79673 | -12.75003 | 37096 ft | 527 kts | 128° |
| 2026-05-04 14:24 | 56.77692 | -12.69361 | 37101 ft | 529 kts | 120° |
| 2026-05-04 14:24 | 56.74322 | -12.57475 | 37072 ft | 530 kts | 117° |
| 2026-05-04 14:25 | 56.71101 | -12.45385 | 37103 ft | 529 kts | 117° |
| 2026-05-04 14:25 | 56.66225 | -12.27433 | 37094 ft | 529 kts | 117° |
| 2026-05-04 14:26 | 56.62917 | -12.15508 | 37093 ft | 529 kts | 117° |
| 2026-05-04 14:26 | 56.59575 | -12.03551 | 37093 ft | 529 kts | 118° |
| 2026-05-04 14:27 | 56.56237 | -11.91665 | 37094 ft | 529 kts | 118° |
| 2026-05-04 14:27 | 56.52902 | -11.79847 | 37091 ft | 528 kts | 118° |
| 2026-05-04 14:28 | 56.49537 | -11.67978 | 37094 ft | 528 kts | 118° |
| 2026-05-04 14:28 | 56.46190 | -11.56232 | 37089 ft | 528 kts | 118° |
| 2026-05-04 14:29 | 56.39422 | -11.32666 | 37086 ft | 529 kts | 118° |
| 2026-05-04 14:30 | 56.36015 | -11.20889 | 37088 ft | 529 kts | 118° |
| 2026-05-04 14:31 | 56.30903 | -11.03332 | 37089 ft | 528 kts | 119° |
| 2026-05-04 14:32 | 56.24029 | -10.79934 | 37086 ft | 527 kts | 119° |
| 2026-05-04 14:32 | 56.20603 | -10.68360 | 37086 ft | 527 kts | 119° |
| 2026-05-04 14:33 | 56.17141 | -10.56719 | 37088 ft | 527 kts | 119° |
| 2026-05-04 14:33 | 56.13669 | -10.45102 | 37088 ft | 527 kts | 119° |
| 2026-05-04 14:34 | 56.10217 | -10.33611 | 37086 ft | 525 kts | 119° |
| 2026-05-04 14:34 | 56.06735 | -10.22074 | 37092 ft | 525 kts | 120° |
| 2026-05-04 14:35 | 56.03243 | -10.10563 | 37088 ft | 525 kts | 120° |
| 2026-05-04 14:35 | 55.99767 | -9.99158 | 37088 ft | 525 kts | 120° |
| 2026-05-04 14:36 | 55.96114 | -9.87833 | 37086 ft | 525 kts | 122° |
| 2026-05-04 14:36 | 55.92357 | -9.76746 | 37086 ft | 524 kts | 122° |
| 2026-05-04 14:37 | 55.88583 | -9.65602 | 37088 ft | 522 kts | 122° |
| 2026-05-04 14:37 | 55.84862 | -9.54564 | 37088 ft | 521 kts | 122° |
| 2026-05-04 14:38 | 55.81126 | -9.43489 | 37086 ft | 521 kts | 122° |
| 2026-05-04 14:38 | 55.77405 | -9.32507 | 37086 ft | 521 kts | 122° |
| 2026-05-04 14:39 | 55.73648 | -9.21474 | 37089 ft | 521 kts | 122° |
| 2026-05-04 14:39 | 55.69882 | -9.10466 | 37089 ft | 521 kts | 122° |
| 2026-05-04 14:40 | 55.64245 | -8.94086 | 37089 ft | 521 kts | 122° |
| 2026-05-04 14:40 | 55.60450 | -8.83119 | 37088 ft | 521 kts | 122° |
| 2026-05-04 14:41 | 55.56672 | -8.72249 | 37089 ft | 521 kts | 122° |
| 2026-05-04 14:42 | 55.49038 | -8.50433 | 37086 ft | 521 kts | 123° |
| 2026-05-04 14:42 | 55.45216 | -8.39583 | 37089 ft | 518 kts | 122° |
| 2026-05-04 14:43 | 55.41403 | -8.28806 | 37090 ft | 517 kts | 122° |
| 2026-05-04 14:43 | 55.37583 | -8.18058 | 37088 ft | 517 kts | 122° |
| 2026-05-04 14:44 | 55.33774 | -8.07388 | 37090 ft | 517 kts | 123° |
| 2026-05-04 14:44 | 55.30585 | -7.98492 | 37092 ft | 517 kts | 123° |
| 2026-05-04 14:45 | 55.26733 | -7.87786 | 37076 ft | 517 kts | 123° |
| 2026-05-04 14:45 | 55.22888 | -7.77147 | 37086 ft | 515 kts | 123° |
| 2026-05-04 14:46 | 55.19044 | -7.66555 | 37086 ft | 514 kts | 123° |
| 2026-05-04 14:46 | 55.15215 | -7.56052 | 37086 ft | 514 kts | 123° |
| 2026-05-04 14:47 | 55.11358 | -7.45516 | 37097 ft | 513 kts | 123° |
| 2026-05-04 14:47 | 55.07496 | -7.35012 | 37101 ft | 513 kts | 123° |
| 2026-05-04 14:48 | 55.03623 | -7.24526 | 37101 ft | 513 kts | 123° |
| 2026-05-04 14:48 | 54.99780 | -7.14162 | 37103 ft | 511 kts | 123° |
| 2026-05-04 14:49 | 54.95915 | -7.03780 | 37101 ft | 510 kts | 123° |
| 2026-05-04 14:49 | 54.92040 | -6.93420 | 37097 ft | 510 kts | 123° |
| 2026-05-04 14:50 | 54.88163 | -6.83094 | 37093 ft | 510 kts | 123° |
| 2026-05-04 14:50 | 54.84298 | -6.72845 | 37084 ft | 510 kts | 123° |
| 2026-05-04 14:51 | 54.80399 | -6.62548 | 37079 ft | 508 kts | 123° |
| 2026-05-04 14:51 | 54.76508 | -6.52315 | 37093 ft | 506 kts | 123° |
| 2026-05-04 14:52 | 54.72626 | -6.42148 | 37100 ft | 507 kts | 123° |
| 2026-05-04 14:52 | 54.68739 | -6.32009 | 37102 ft | 508 kts | 123° |
| 2026-05-04 14:53 | 54.64818 | -6.21825 | 37102 ft | 507 kts | 123° |
| 2026-05-04 14:53 | 54.60922 | -6.11744 | 37103 ft | 507 kts | 123° |
| 2026-05-04 14:54 | 54.56997 | -6.01631 | 37102 ft | 506 kts | 123° |
| 2026-05-04 14:54 | 54.53058 | -5.91522 | 37103 ft | 505 kts | 123° |
| 2026-05-04 14:55 | 54.49151 | -5.81538 | 37099 ft | 505 kts | 123° |
| 2026-05-04 14:55 | 54.45216 | -5.71520 | 37096 ft | 505 kts | 123° |
| 2026-05-04 14:56 | 54.41271 | -5.61519 | 37081 ft | 505 kts | 123° |
| 2026-05-04 14:56 | 54.37335 | -5.51579 | 37081 ft | 505 kts | 123° |
| 2026-05-04 14:57 | 54.33377 | -5.41625 | 37080 ft | 504 kts | 123° |
| 2026-05-04 14:57 | 54.29422 | -5.31718 | 37085 ft | 503 kts | 123° |
| 2026-05-04 14:58 | 54.25476 | -5.21871 | 37083 ft | 503 kts | 123° |
| 2026-05-04 14:58 | 54.21498 | -5.11984 | 37084 ft | 503 kts | 123° |
| 2026-05-04 14:59 | 54.17543 | -5.02191 | 37078 ft | 503 kts | 123° |
| 2026-05-04 15:00 | 54.11554 | -4.87438 | 37077 ft | 502 kts | 123° |
| 2026-05-04 15:00 | 54.07570 | -4.77674 | 37072 ft | 501 kts | 123° |
| 2026-05-04 15:01 | 54.01618 | -4.63152 | 37075 ft | 500 kts | 123° |
| 2026-05-04 15:01 | 53.97626 | -4.53461 | 37074 ft | 500 kts | 123° |
| 2026-05-04 15:02 | 53.93614 | -4.43757 | 37071 ft | 500 kts | 123° |
| 2026-05-04 15:02 | 53.89603 | -4.34090 | 37069 ft | 499 kts | 123° |
| 2026-05-04 15:03 | 53.85646 | -4.24437 | 37068 ft | 498 kts | 123° |
| 2026-05-04 15:03 | 53.81735 | -4.14851 | 37068 ft | 497 kts | 123° |
| 2026-05-04 15:04 | 53.77814 | -4.05301 | 37069 ft | 489 kts | 123° |
| 2026-05-04 15:04 | 53.73931 | -3.95912 | 37065 ft | 483 kts | 123° |
| 2026-05-04 15:05 | 53.70092 | -3.86664 | 37064 ft | 483 kts | 123° |
| 2026-05-04 15:05 | 53.66229 | -3.77387 | 37063 ft | 482 kts | 123° |
| 2026-05-04 15:06 | 53.62369 | -3.68151 | 37065 ft | 480 kts | 123° |
| 2026-05-04 15:07 | 53.56603 | -3.54404 | 37064 ft | 480 kts | 124° |
| 2026-05-04 15:07 | 53.52727 | -3.45223 | 37064 ft | 480 kts | 124° |
| 2026-05-04 15:08 | 53.48868 | -3.36111 | 37064 ft | 480 kts | 124° |
| 2026-05-04 15:08 | 53.44981 | -3.26963 | 37062 ft | 480 kts | 124° |
| 2026-05-04 15:09 | 53.41085 | -3.17825 | 37069 ft | 480 kts | 124° |
| 2026-05-04 15:09 | 53.37198 | -3.08790 | 37072 ft | 481 kts | 125° |
| 2026-05-04 15:10 | 53.31178 | -2.95320 | 37076 ft | 480 kts | 126° |
| 2026-05-04 15:11 | 53.25172 | -2.81958 | 37070 ft | 481 kts | 126° |
| 2026-05-04 15:11 | 53.21152 | -2.73017 | 37051 ft | 481 kts | 126° |
| 2026-05-04 15:12 | 53.17122 | -2.64083 | 37055 ft | 481 kts | 126° |
| 2026-05-04 15:12 | 53.13136 | -2.55276 | 37052 ft | 481 kts | 126° |
| 2026-05-04 15:13 | 53.09825 | -2.47250 | 37052 ft | 482 kts | 123° |
| 2026-05-04 15:13 | 53.06076 | -2.37995 | 37057 ft | 482 kts | 123° |
| 2026-05-04 15:14 | 53.01854 | -2.29430 | 37059 ft | 484 kts | 140° |
| 2026-05-04 15:14 | 52.96236 | -2.23214 | 37056 ft | 485 kts | 147° |
| 2026-05-04 15:15 | 52.90539 | -2.17303 | 37060 ft | 484 kts | 147° |
| 2026-05-04 15:15 | 52.87692 | -2.14341 | 36932 ft | 481 kts | 147° |
| 2026-05-04 15:15 | 52.84872 | -2.11406 | 36143 ft | 473 kts | 146° |
| 2026-05-04 15:16 | 52.79364 | -2.05679 | 34676 ft | 466 kts | 145° |
| 2026-05-04 15:16 | 52.76645 | -2.02853 | 33895 ft | 468 kts | 145° |
| 2026-05-04 15:16 | 52.71104 | -1.97105 | 32246 ft | 471 kts | 147° |
| 2026-05-04 15:17 | 52.68320 | -1.94227 | 31426 ft | 472 kts | 147° |
| 2026-05-04 15:17 | 52.62727 | -1.88456 | 29652 ft | 475 kts | 147° |
| 2026-05-04 15:17 | 52.59916 | -1.85563 | 28726 ft | 475 kts | 148° |
| 2026-05-04 15:18 | 52.57138 | -1.82709 | 28149 ft | 468 kts | 148° |
| 2026-05-04 15:18 | 52.54393 | -1.79892 | 27546 ft | 462 kts | 148° |
| 2026-05-04 15:18 | 52.51706 | -1.77139 | 26946 ft | 457 kts | 148° |
| 2026-05-04 15:19 | 52.46340 | -1.71652 | 25733 ft | 448 kts | 148° |
| 2026-05-04 15:19 | 52.43733 | -1.68992 | 25140 ft | 444 kts | 149° |
| 2026-05-04 15:19 | 52.38534 | -1.63705 | 23969 ft | 436 kts | 149° |
| 2026-05-04 15:20 | 52.35964 | -1.61099 | 23340 ft | 433 kts | 149° |
| 2026-05-04 15:20 | 52.33408 | -1.58508 | 22720 ft | 428 kts | 149° |
| 2026-05-04 15:20 | 52.30892 | -1.55960 | 22138 ft | 423 kts | 149° |
| 2026-05-04 15:20 | 52.28403 | -1.53442 | 21565 ft | 418 kts | 149° |
| 2026-05-04 15:21 | 52.25957 | -1.50971 | 21000 ft | 414 kts | 149° |
| 2026-05-04 15:21 | 52.23518 | -1.48510 | 20407 ft | 410 kts | 149° |
| 2026-05-04 15:21 | 52.18970 | -1.42911 | 19496 ft | 416 kts | 141° |
| 2026-05-04 15:22 | 52.16787 | -1.39856 | 19081 ft | 420 kts | 140° |
| 2026-05-04 15:22 | 52.14567 | -1.36745 | 18656 ft | 418 kts | 140° |
| 2026-05-04 15:22 | 52.10160 | -1.30591 | 17776 ft | 413 kts | 141° |
| 2026-05-04 15:23 | 52.07986 | -1.27566 | 17351 ft | 410 kts | 141° |
| 2026-05-04 15:23 | 52.05848 | -1.24596 | 16948 ft | 408 kts | 141° |
| 2026-05-04 15:23 | 52.03687 | -1.21598 | 16524 ft | 406 kts | 141° |
| 2026-05-04 15:23 | 52.01537 | -1.18622 | 16110 ft | 403 kts | 141° |
| 2026-05-04 15:24 | 51.97301 | -1.12767 | 15318 ft | 399 kts | 141° |
| 2026-05-04 15:24 | 51.93175 | -1.07069 | 14414 ft | 385 kts | 141° |
| 2026-05-04 15:25 | 51.91152 | -1.04287 | 13880 ft | 386 kts | 141° |
| 2026-05-04 15:25 | 51.89102 | -1.01471 | 13320 ft | 385 kts | 141° |
| 2026-05-04 15:25 | 51.87057 | -0.98664 | 12812 ft | 383 kts | 141° |
| 2026-05-04 15:26 | 51.83850 | -0.92012 | 11817 ft | 384 kts | 117° |
| 2026-05-04 15:26 | 51.82690 | -0.88079 | 11469 ft | 386 kts | 116° |
| 2026-05-04 15:26 | 51.80396 | -0.80339 | 10327 ft | 379 kts | 117° |
| 2026-05-04 15:27 | 51.79246 | -0.76534 | 9853 ft | 372 kts | 117° |
| 2026-05-04 15:27 | 51.77417 | -0.70536 | 9416 ft | 337 kts | 118° |
| 2026-05-04 15:28 | 51.75484 | -0.64233 | 8669 ft | 295 kts | 118° |
| 2026-05-04 15:28 | 51.74577 | -0.61295 | 7974 ft | 289 kts | 118° |
| 2026-05-04 15:28 | 51.72828 | -0.55688 | 7095 ft | 279 kts | 121° |
| 2026-05-04 15:29 | 51.71770 | -0.53051 | 6923 ft | 280 kts | 127° |
| 2026-05-04 15:30 | 51.67267 | -0.42997 | 6945 ft | 276 kts | 128° |
| 2026-05-04 15:30 | 51.63884 | -0.35449 | 6910 ft | 276 kts | 127° |
| 2026-05-04 15:31 | 51.61642 | -0.30464 | 6904 ft | 276 kts | 128° |
| 2026-05-04 15:31 | 51.60496 | -0.27987 | 6798 ft | 276 kts | 129° |
| 2026-05-04 15:32 | 51.57116 | -0.20863 | 6287 ft | 248 kts | 127° |
| 2026-05-04 15:32 | 51.55251 | -0.16600 | 5716 ft | 221 kts | 118° |
| 2026-05-04 15:33 | 51.54134 | -0.12086 | 4896 ft | 215 kts | 105° |
| 2026-05-04 15:34 | 51.53129 | -0.05438 | 3744 ft | 191 kts | 115° |
| 2026-05-04 15:34 | 51.52315 | -0.03769 | 3280 ft | 191 kts | 139° |
| 2026-05-04 15:34 | 51.49848 | -0.03135 | 2523 ft | 193 kts | 209° |
| 2026-05-04 15:35 | 51.48381 | -0.06603 | 2482 ft | 192 kts | 250° |
| 2026-05-04 15:35 | 51.47912 | -0.08619 | 2484 ft | 192 kts | 251° |
| 2026-05-04 15:35 | 51.47450 | -0.10624 | 2487 ft | 191 kts | 251° |
| 2026-05-04 15:36 | 51.46728 | -0.14710 | 2489 ft | 190 kts | 267° |
| 2026-05-04 15:36 | 51.46693 | -0.16743 | 2493 ft | 174 kts | 271° |
| 2026-05-04 15:36 | 51.46683 | -0.18646 | 2499 ft | 168 kts | 272° |
| 2026-05-04 15:37 | 51.46673 | -0.20475 | 2489 ft | 160 kts | 271° |
| 2026-05-04 15:37 | 51.46659 | -0.22208 | 2495 ft | 152 kts | 271° |
| 2026-05-04 15:37 | 51.46644 | -0.23911 | 2490 ft | 153 kts | 272° |
| 2026-05-04 15:37 | 51.46630 | -0.25599 | 2336 ft | 149 kts | 272° |
| 2026-05-04 15:38 | 51.46619 | -0.27225 | 2138 ft | 147 kts | 271° |
| 2026-05-04 15:38 | 51.46608 | -0.28860 | 1939 ft | 146 kts | 272° |
| 2026-05-04 15:38 | 51.46598 | -0.30486 | 1740 ft | 145 kts | 272° |
| 2026-05-04 15:38 | 51.46587 | -0.32114 | 1527 ft | 144 kts | 273° |
| 2026-05-04 15:39 | 51.46577 | -0.33723 | 1341 ft | 144 kts | 273° |
| 2026-05-04 15:39 | 51.46566 | -0.35335 | 1139 ft | 144 kts | 273° |
| 2026-05-04 15:39 | 51.46545 | -0.38532 | 738 ft | 142 kts | 271° |
| 2026-05-04 15:40 | 51.46534 | -0.40112 | 537 ft | 141 kts | 273° |
| 2026-05-04 15:40 | 51.46526 | -0.41669 | 358 ft | 143 kts | 273° |
| 2026-05-04 15:40 | 51.46511 | -0.43268 | 162 ft | 140 kts | 274° |
| 2026-05-04 15:40 | 51.46506 | -0.44763 | 98 ft | 116 kts | 268° |
| 2026-05-04 15:41 | 51.46498 | -0.45771 | 91 ft | 65 kts | 270° |
| 2026-05-04 15:41 | 51.46492 | -0.46273 | 94 ft | 38 kts | 266° |
| 2026-05-04 15:41 | 51.46527 | -0.46670 | 98 ft | 36 kts | 291° |
| 2026-05-04 15:41 | 51.46596 | -0.46845 | 97 ft | 14 kts | 339° |
| 2026-05-04 15:42 | 51.46727 | -0.46859 | 92 ft | 22 kts | 0° |
| 2026-05-04 15:42 | 51.46822 | -0.46861 | 92 ft | 0 kts | 359° |
| 2026-05-04 15:42 | 51.46842 | -0.46816 | 97 ft | 12 kts | 72° |
| 2026-05-04 15:42 | 51.46845 | -0.46666 | 95 ft | 15 kts | 90° |
| 2026-05-04 15:43 | 51.46860 | -0.46515 | 96 ft | 9 kts | 52° |
| 2026-05-04 15:43 | 51.46899 | -0.46425 | 97 ft | 0 kts | 56° |
| 2026-05-04 15:43 | 51.46905 | -0.46413 | 97 ft | 0 kts | 55° |
| 2026-05-04 15:43 | 51.46905 | -0.46412 | 95 ft | 0 kts | 55° |